<?xml version="1.0" encoding="UTF-8" standalone="no" ?>
<gpx xmlns="http://www.topografix.com/GPX/1/1" xmlns:xsi="http://www.w3.org/2001/XMLSchema-instance" xsi:schemaLocation="http://www.topografix.com/GPX/1/1 http://www.topografix.com/GPX/1/1/gpx.xsd" version="1.1" creator="VisuGPX - https://www.visugpx.com">
  <metadata>
    <name>Rocamadour - Gramat</name>
    <desc><![CDATA[

]]></desc>
  </metadata>
  <trk>
    <name><![CDATA[Rocamadour - Gramat]]></name>
    <extensions>
      <line xmlns="http://www.topografix.com/GPX/gpx_style/0/2">
        <color>0008ff</color>
        <opacity>1</opacity>
        <width>9</width>
      </line>
    </extensions>
    <trkseg>
      <trkpt lat="44.79887" lon="1.61864">
        <ele>145.816</ele>
        <time>2018-07-31T23:06:01Z</time>
      </trkpt>
      <trkpt lat="44.79887" lon="1.61864">
        <ele>145.816</ele>
        <time>2018-07-31T23:06:01Z</time>
      </trkpt>
      <trkpt lat="44.79887" lon="1.61864">
        <ele>145.816</ele>
        <time>2018-07-31T23:06:01Z</time>
      </trkpt>
      <trkpt lat="44.79887" lon="1.61864">
        <ele>145.816</ele>
        <time>2018-07-31T23:06:01Z</time>
      </trkpt>
      <trkpt lat="44.79887" lon="1.61864">
        <ele>145.816</ele>
        <time>2018-07-31T23:06:01Z</time>
      </trkpt>
      <trkpt lat="44.79887" lon="1.61864">
        <ele>145.816</ele>
        <time>2018-07-31T23:06:01Z</time>
      </trkpt>
      <trkpt lat="44.79892" lon="1.61866">
        <ele>146.908</ele>
        <time>2018-07-31T23:05:41Z</time>
      </trkpt>
      <trkpt lat="44.79901" lon="1.61869">
        <ele>149.416</ele>
        <time>2018-07-31T23:05:21Z</time>
      </trkpt>
      <trkpt lat="44.79906" lon="1.6187">
        <ele>150.711</ele>
        <time>2018-07-31T23:05:01Z</time>
      </trkpt>
      <trkpt lat="44.79924" lon="1.61877">
        <ele>153.995</ele>
        <time>2018-07-31T23:04:41Z</time>
      </trkpt>
      <trkpt lat="44.79929" lon="1.6188">
        <ele>154.154</ele>
        <time>2018-07-31T23:04:21Z</time>
      </trkpt>
      <trkpt lat="44.79931" lon="1.61882">
        <ele>154.296</ele>
        <time>2018-07-31T23:04:01Z</time>
      </trkpt>
      <trkpt lat="44.79936" lon="1.61885">
        <ele>154.475</ele>
        <time>2018-07-31T23:03:41Z</time>
      </trkpt>
      <trkpt lat="44.79951" lon="1.61897">
        <ele>153.648</ele>
        <time>2018-07-31T23:03:21Z</time>
      </trkpt>
      <trkpt lat="44.79958" lon="1.61905">
        <ele>151.891</ele>
        <time>2018-07-31T23:03:01Z</time>
      </trkpt>
      <trkpt lat="44.7996" lon="1.61907">
        <ele>151.357</ele>
        <time>2018-07-31T23:02:41Z</time>
      </trkpt>
      <trkpt lat="44.79961" lon="1.61908">
        <ele>151.1</ele>
        <time>2018-07-31T23:02:21Z</time>
      </trkpt>
      <trkpt lat="44.79964" lon="1.6191">
        <ele>150.62</ele>
        <time>2018-07-31T23:02:01Z</time>
      </trkpt>
      <trkpt lat="44.79969" lon="1.61911">
        <ele>150.008</ele>
        <time>2018-07-31T23:01:41Z</time>
      </trkpt>
      <trkpt lat="44.79987" lon="1.61917">
        <ele>149.477</ele>
        <time>2018-07-31T23:01:21Z</time>
      </trkpt>
      <trkpt lat="44.79994" lon="1.6192">
        <ele>149.382</ele>
        <time>2018-07-31T23:01:01Z</time>
      </trkpt>
      <trkpt lat="44.8002" lon="1.61933">
        <ele>151.076</ele>
        <time>2018-07-31T23:00:41Z</time>
      </trkpt>
      <trkpt lat="44.80043" lon="1.61946">
        <ele>154.075</ele>
        <time>2018-07-31T23:00:21Z</time>
      </trkpt>
      <trkpt lat="44.80056" lon="1.61958">
        <ele>152.217</ele>
        <time>2018-07-31T23:00:01Z</time>
      </trkpt>
      <trkpt lat="44.80058" lon="1.6196">
        <ele>152.226</ele>
        <time>2018-07-31T22:59:41Z</time>
      </trkpt>
      <trkpt lat="44.80059" lon="1.61961">
        <ele>152.029</ele>
        <time>2018-07-31T22:59:21Z</time>
      </trkpt>
      <trkpt lat="44.80068" lon="1.61975">
        <ele>151.062</ele>
        <time>2018-07-31T22:59:01Z</time>
      </trkpt>
      <trkpt lat="44.80072" lon="1.61982">
        <ele>150.776</ele>
        <time>2018-07-31T22:58:41Z</time>
      </trkpt>
      <trkpt lat="44.80076" lon="1.6199">
        <ele>149.79</ele>
        <time>2018-07-31T22:58:21Z</time>
      </trkpt>
      <trkpt lat="44.80077" lon="1.61993">
        <ele>149.219</ele>
        <time>2018-07-31T22:58:01Z</time>
      </trkpt>
      <trkpt lat="44.80079" lon="1.61996">
        <ele>148.608</ele>
        <time>2018-07-31T22:57:41Z</time>
      </trkpt>
      <trkpt lat="44.80085" lon="1.62008">
        <ele>148.199</ele>
        <time>2018-07-31T22:57:21Z</time>
      </trkpt>
      <trkpt lat="44.80098" lon="1.62026">
        <ele>150.394</ele>
        <time>2018-07-31T22:57:01Z</time>
      </trkpt>
      <trkpt lat="44.80098" lon="1.62026">
        <ele>150.348</ele>
        <time>2018-07-31T22:56:41Z</time>
      </trkpt>
      <trkpt lat="44.80111" lon="1.62041">
        <ele>150.047</ele>
        <time>2018-07-31T22:56:21Z</time>
      </trkpt>
      <trkpt lat="44.80114" lon="1.62045">
        <ele>150.729</ele>
        <time>2018-07-31T22:56:01Z</time>
      </trkpt>
      <trkpt lat="44.80116" lon="1.62048">
        <ele>151.228</ele>
        <time>2018-07-31T22:55:41Z</time>
      </trkpt>
      <trkpt lat="44.80125" lon="1.62057">
        <ele>152.991</ele>
        <time>2018-07-31T22:55:21Z</time>
      </trkpt>
      <trkpt lat="44.80145" lon="1.62088">
        <ele>151.394</ele>
        <time>2018-07-31T22:55:01Z</time>
      </trkpt>
      <trkpt lat="44.80153" lon="1.62099">
        <ele>152.277</ele>
        <time>2018-07-31T22:54:41Z</time>
      </trkpt>
      <trkpt lat="44.80172" lon="1.62129">
        <ele>150.961</ele>
        <time>2018-07-31T22:54:21Z</time>
      </trkpt>
      <trkpt lat="44.80182" lon="1.62152">
        <ele>149.827</ele>
        <time>2018-07-31T22:54:01Z</time>
      </trkpt>
      <trkpt lat="44.80185" lon="1.62163">
        <ele>148.108</ele>
        <time>2018-07-31T22:53:41Z</time>
      </trkpt>
      <trkpt lat="44.80188" lon="1.62173">
        <ele>147.299</ele>
        <time>2018-07-31T22:53:21Z</time>
      </trkpt>
      <trkpt lat="44.8019" lon="1.62183">
        <ele>146.654</ele>
        <time>2018-07-31T22:53:01Z</time>
      </trkpt>
      <trkpt lat="44.80192" lon="1.62187">
        <ele>146.318</ele>
        <time>2018-07-31T22:52:41Z</time>
      </trkpt>
      <trkpt lat="44.80194" lon="1.622">
        <ele>145.427</ele>
        <time>2018-07-31T22:52:21Z</time>
      </trkpt>
      <trkpt lat="44.80197" lon="1.62212">
        <ele>144.519</ele>
        <time>2018-07-31T22:52:01Z</time>
      </trkpt>
      <trkpt lat="44.802" lon="1.62227">
        <ele>143.458</ele>
        <time>2018-07-31T22:51:41Z</time>
      </trkpt>
      <trkpt lat="44.80204" lon="1.62237">
        <ele>143.521</ele>
        <time>2018-07-31T22:51:21Z</time>
      </trkpt>
      <trkpt lat="44.80216" lon="1.62257">
        <ele>144.784</ele>
        <time>2018-07-31T22:51:01Z</time>
      </trkpt>
      <trkpt lat="44.80227" lon="1.6227">
        <ele>146.366</ele>
        <time>2018-07-31T22:50:41Z</time>
      </trkpt>
      <trkpt lat="44.80233" lon="1.62274">
        <ele>147.729</ele>
        <time>2018-07-31T22:50:21Z</time>
      </trkpt>
      <trkpt lat="44.80245" lon="1.6228">
        <ele>149.821</ele>
        <time>2018-07-31T22:50:01Z</time>
      </trkpt>
      <trkpt lat="44.80253" lon="1.62319">
        <ele>149.608</ele>
        <time>2018-07-31T22:49:41Z</time>
      </trkpt>
      <trkpt lat="44.80254" lon="1.6234">
        <ele>149.628</ele>
        <time>2018-07-31T22:49:21Z</time>
      </trkpt>
      <trkpt lat="44.80254" lon="1.62357">
        <ele>149.423</ele>
        <time>2018-07-31T22:49:01Z</time>
      </trkpt>
      <trkpt lat="44.80254" lon="1.62363">
        <ele>149.317</ele>
        <time>2018-07-31T22:48:41Z</time>
      </trkpt>
      <trkpt lat="44.80251" lon="1.62383">
        <ele>147.626</ele>
        <time>2018-07-31T22:48:21Z</time>
      </trkpt>
      <trkpt lat="44.80246" lon="1.62404">
        <ele>146.988</ele>
        <time>2018-07-31T22:48:01Z</time>
      </trkpt>
      <trkpt lat="44.80239" lon="1.62422">
        <ele>146.357</ele>
        <time>2018-07-31T22:47:41Z</time>
      </trkpt>
      <trkpt lat="44.80225" lon="1.62442">
        <ele>145.48</ele>
        <time>2018-07-31T22:47:21Z</time>
      </trkpt>
      <trkpt lat="44.80211" lon="1.62462">
        <ele>144.813</ele>
        <time>2018-07-31T22:47:01Z</time>
      </trkpt>
      <trkpt lat="44.80194" lon="1.6248">
        <ele>144.318</ele>
        <time>2018-07-31T22:46:41Z</time>
      </trkpt>
      <trkpt lat="44.80176" lon="1.62503">
        <ele>146.498</ele>
        <time>2018-07-31T22:46:21Z</time>
      </trkpt>
      <trkpt lat="44.80165" lon="1.62518">
        <ele>146.717</ele>
        <time>2018-07-31T22:46:01Z</time>
      </trkpt>
      <trkpt lat="44.80155" lon="1.62534">
        <ele>146.508</ele>
        <time>2018-07-31T22:45:41Z</time>
      </trkpt>
      <trkpt lat="44.80154" lon="1.62535">
        <ele>146.473</ele>
        <time>2018-07-31T22:45:21Z</time>
      </trkpt>
      <trkpt lat="44.8015" lon="1.62542">
        <ele>146.158</ele>
        <time>2018-07-31T22:45:01Z</time>
      </trkpt>
      <trkpt lat="44.80141" lon="1.62559">
        <ele>145.142</ele>
        <time>2018-07-31T22:44:41Z</time>
      </trkpt>
      <trkpt lat="44.80127" lon="1.62584">
        <ele>147.961</ele>
        <time>2018-07-31T22:44:21Z</time>
      </trkpt>
      <trkpt lat="44.8012" lon="1.62601">
        <ele>147.973</ele>
        <time>2018-07-31T22:44:01Z</time>
      </trkpt>
      <trkpt lat="44.80112" lon="1.62627">
        <ele>147.962</ele>
        <time>2018-07-31T22:43:41Z</time>
      </trkpt>
      <trkpt lat="44.80106" lon="1.62646">
        <ele>149.255</ele>
        <time>2018-07-31T22:43:21Z</time>
      </trkpt>
      <trkpt lat="44.80099" lon="1.62672">
        <ele>150.738</ele>
        <time>2018-07-31T22:43:01Z</time>
      </trkpt>
      <trkpt lat="44.80096" lon="1.62692">
        <ele>151.113</ele>
        <time>2018-07-31T22:42:41Z</time>
      </trkpt>
      <trkpt lat="44.80095" lon="1.62709">
        <ele>151.543</ele>
        <time>2018-07-31T22:42:21Z</time>
      </trkpt>
      <trkpt lat="44.80094" lon="1.62718">
        <ele>151.807</ele>
        <time>2018-07-31T22:42:01Z</time>
      </trkpt>
      <trkpt lat="44.80092" lon="1.62737">
        <ele>151.308</ele>
        <time>2018-07-31T22:41:41Z</time>
      </trkpt>
      <trkpt lat="44.80089" lon="1.62759">
        <ele>150.653</ele>
        <time>2018-07-31T22:41:21Z</time>
      </trkpt>
      <trkpt lat="44.80085" lon="1.62801">
        <ele>150.688</ele>
        <time>2018-07-31T22:41:01Z</time>
      </trkpt>
      <trkpt lat="44.80083" lon="1.62823">
        <ele>151.172</ele>
        <time>2018-07-31T22:40:41Z</time>
      </trkpt>
      <trkpt lat="44.80081" lon="1.62843">
        <ele>151.681</ele>
        <time>2018-07-31T22:40:21Z</time>
      </trkpt>
      <trkpt lat="44.8008" lon="1.62849">
        <ele>151.693</ele>
        <time>2018-07-31T22:40:01Z</time>
      </trkpt>
      <trkpt lat="44.80077" lon="1.62877">
        <ele>152.342</ele>
        <time>2018-07-31T22:39:41Z</time>
      </trkpt>
      <trkpt lat="44.80076" lon="1.62885">
        <ele>152.515</ele>
        <time>2018-07-31T22:39:21Z</time>
      </trkpt>
      <trkpt lat="44.80073" lon="1.62906">
        <ele>152.928</ele>
        <time>2018-07-31T22:39:01Z</time>
      </trkpt>
      <trkpt lat="44.80066" lon="1.62937">
        <ele>151.498</ele>
        <time>2018-07-31T22:38:41Z</time>
      </trkpt>
      <trkpt lat="44.80064" lon="1.6295">
        <ele>151.115</ele>
        <time>2018-07-31T22:38:21Z</time>
      </trkpt>
      <trkpt lat="44.8006" lon="1.62966">
        <ele>151.226</ele>
        <time>2018-07-31T22:38:01Z</time>
      </trkpt>
      <trkpt lat="44.80059" lon="1.62969">
        <ele>151.308</ele>
        <time>2018-07-31T22:37:41Z</time>
      </trkpt>
      <trkpt lat="44.80056" lon="1.62982">
        <ele>150.891</ele>
        <time>2018-07-31T22:37:21Z</time>
      </trkpt>
      <trkpt lat="44.80054" lon="1.6299">
        <ele>150.836</ele>
        <time>2018-07-31T22:37:01Z</time>
      </trkpt>
      <trkpt lat="44.80053" lon="1.62994">
        <ele>150.82</ele>
        <time>2018-07-31T22:36:41Z</time>
      </trkpt>
      <trkpt lat="44.80046" lon="1.63015">
        <ele>151.569</ele>
        <time>2018-07-31T22:36:21Z</time>
      </trkpt>
      <trkpt lat="44.80036" lon="1.63042">
        <ele>151.631</ele>
        <time>2018-07-31T22:36:01Z</time>
      </trkpt>
      <trkpt lat="44.80028" lon="1.63069">
        <ele>150.04</ele>
        <time>2018-07-31T22:35:41Z</time>
      </trkpt>
      <trkpt lat="44.80019" lon="1.63101">
        <ele>149.843</ele>
        <time>2018-07-31T22:35:21Z</time>
      </trkpt>
      <trkpt lat="44.80008" lon="1.6313">
        <ele>149.266</ele>
        <time>2018-07-31T22:35:01Z</time>
      </trkpt>
      <trkpt lat="44.79997" lon="1.63153">
        <ele>147.576</ele>
        <time>2018-07-31T22:34:41Z</time>
      </trkpt>
      <trkpt lat="44.79984" lon="1.63175">
        <ele>146.69</ele>
        <time>2018-07-31T22:34:21Z</time>
      </trkpt>
      <trkpt lat="44.7998" lon="1.63185">
        <ele>146.219</ele>
        <time>2018-07-31T22:34:01Z</time>
      </trkpt>
      <trkpt lat="44.79977" lon="1.63194">
        <ele>146.108</ele>
        <time>2018-07-31T22:33:41Z</time>
      </trkpt>
      <trkpt lat="44.79977" lon="1.63201">
        <ele>146.269</ele>
        <time>2018-07-31T22:33:21Z</time>
      </trkpt>
      <trkpt lat="44.79976" lon="1.63215">
        <ele>146.684</ele>
        <time>2018-07-31T22:33:01Z</time>
      </trkpt>
      <trkpt lat="44.79977" lon="1.6323">
        <ele>147.438</ele>
        <time>2018-07-31T22:32:41Z</time>
      </trkpt>
      <trkpt lat="44.79976" lon="1.63241">
        <ele>147.757</ele>
        <time>2018-07-31T22:32:21Z</time>
      </trkpt>
      <trkpt lat="44.79974" lon="1.6325">
        <ele>147.629</ele>
        <time>2018-07-31T22:32:01Z</time>
      </trkpt>
      <trkpt lat="44.7997" lon="1.63264">
        <ele>148.398</ele>
        <time>2018-07-31T22:31:41Z</time>
      </trkpt>
      <trkpt lat="44.7997" lon="1.63265">
        <ele>148.361</ele>
        <time>2018-07-31T22:31:21Z</time>
      </trkpt>
      <trkpt lat="44.79968" lon="1.63269">
        <ele>148.614</ele>
        <time>2018-07-31T22:31:01Z</time>
      </trkpt>
      <trkpt lat="44.79965" lon="1.63278">
        <ele>149.055</ele>
        <time>2018-07-31T22:30:41Z</time>
      </trkpt>
      <trkpt lat="44.79965" lon="1.6328">
        <ele>149.307</ele>
        <time>2018-07-31T22:30:21Z</time>
      </trkpt>
      <trkpt lat="44.79961" lon="1.63296">
        <ele>151.517</ele>
        <time>2018-07-31T22:30:01Z</time>
      </trkpt>
      <trkpt lat="44.79961" lon="1.63296">
        <ele>151.508</ele>
        <time>2018-07-31T22:29:41Z</time>
      </trkpt>
      <trkpt lat="44.79957" lon="1.63322">
        <ele>154.657</ele>
        <time>2018-07-31T22:29:21Z</time>
      </trkpt>
      <trkpt lat="44.79953" lon="1.63357">
        <ele>157.472</ele>
        <time>2018-07-31T22:29:01Z</time>
      </trkpt>
      <trkpt lat="44.7995" lon="1.63381">
        <ele>157.336</ele>
        <time>2018-07-31T22:28:41Z</time>
      </trkpt>
      <trkpt lat="44.79946" lon="1.63409">
        <ele>154.645</ele>
        <time>2018-07-31T22:28:21Z</time>
      </trkpt>
      <trkpt lat="44.79941" lon="1.63436">
        <ele>153.867</ele>
        <time>2018-07-31T22:28:01Z</time>
      </trkpt>
      <trkpt lat="44.79934" lon="1.6347">
        <ele>153.426</ele>
        <time>2018-07-31T22:27:41Z</time>
      </trkpt>
      <trkpt lat="44.79931" lon="1.63483">
        <ele>153.749</ele>
        <time>2018-07-31T22:27:21Z</time>
      </trkpt>
      <trkpt lat="44.79926" lon="1.63499">
        <ele>153.222</ele>
        <time>2018-07-31T22:27:01Z</time>
      </trkpt>
      <trkpt lat="44.79918" lon="1.63527">
        <ele>150.441</ele>
        <time>2018-07-31T22:26:41Z</time>
      </trkpt>
      <trkpt lat="44.79912" lon="1.63547">
        <ele>153.381</ele>
        <time>2018-07-31T22:26:21Z</time>
      </trkpt>
      <trkpt lat="44.79909" lon="1.63556">
        <ele>154.109</ele>
        <time>2018-07-31T22:26:01Z</time>
      </trkpt>
      <trkpt lat="44.79906" lon="1.6356">
        <ele>154.308</ele>
        <time>2018-07-31T22:25:41Z</time>
      </trkpt>
      <trkpt lat="44.79906" lon="1.63561">
        <ele>154.336</ele>
        <time>2018-07-31T22:25:21Z</time>
      </trkpt>
      <trkpt lat="44.79903" lon="1.63565">
        <ele>154.191</ele>
        <time>2018-07-31T22:25:01Z</time>
      </trkpt>
      <trkpt lat="44.799" lon="1.63567">
        <ele>153.795</ele>
        <time>2018-07-31T22:24:41Z</time>
      </trkpt>
      <trkpt lat="44.79899" lon="1.63568">
        <ele>153.664</ele>
        <time>2018-07-31T22:24:21Z</time>
      </trkpt>
      <trkpt lat="44.79894" lon="1.63573">
        <ele>152.976</ele>
        <time>2018-07-31T22:24:01Z</time>
      </trkpt>
      <trkpt lat="44.79888" lon="1.63578">
        <ele>151.935</ele>
        <time>2018-07-31T22:23:41Z</time>
      </trkpt>
      <trkpt lat="44.79882" lon="1.63584">
        <ele>152.388</ele>
        <time>2018-07-31T22:23:21Z</time>
      </trkpt>
      <trkpt lat="44.79877" lon="1.63587">
        <ele>152.411</ele>
        <time>2018-07-31T22:23:01Z</time>
      </trkpt>
      <trkpt lat="44.79869" lon="1.6359">
        <ele>151.953</ele>
        <time>2018-07-31T22:22:41Z</time>
      </trkpt>
      <trkpt lat="44.79865" lon="1.63592">
        <ele>151.504</ele>
        <time>2018-07-31T22:22:21Z</time>
      </trkpt>
      <trkpt lat="44.79861" lon="1.63594">
        <ele>151.114</ele>
        <time>2018-07-31T22:22:01Z</time>
      </trkpt>
      <trkpt lat="44.79854" lon="1.63598">
        <ele>151.008</ele>
        <time>2018-07-31T22:21:41Z</time>
      </trkpt>
      <trkpt lat="44.79845" lon="1.63602">
        <ele>150.817</ele>
        <time>2018-07-31T22:21:21Z</time>
      </trkpt>
      <trkpt lat="44.79836" lon="1.63606">
        <ele>150.792</ele>
        <time>2018-07-31T22:21:01Z</time>
      </trkpt>
      <trkpt lat="44.79828" lon="1.63609">
        <ele>150.956</ele>
        <time>2018-07-31T22:20:41Z</time>
      </trkpt>
      <trkpt lat="44.79818" lon="1.63613">
        <ele>152.135</ele>
        <time>2018-07-31T22:20:21Z</time>
      </trkpt>
      <trkpt lat="44.79808" lon="1.63615">
        <ele>152.987</ele>
        <time>2018-07-31T22:20:01Z</time>
      </trkpt>
      <trkpt lat="44.79798" lon="1.63615">
        <ele>154.086</ele>
        <time>2018-07-31T22:19:41Z</time>
      </trkpt>
      <trkpt lat="44.79788" lon="1.63615">
        <ele>155.129</ele>
        <time>2018-07-31T22:19:21Z</time>
      </trkpt>
      <trkpt lat="44.79776" lon="1.63615">
        <ele>156.582</ele>
        <time>2018-07-31T22:19:01Z</time>
      </trkpt>
      <trkpt lat="44.79767" lon="1.63613">
        <ele>155.977</ele>
        <time>2018-07-31T22:18:41Z</time>
      </trkpt>
      <trkpt lat="44.79755" lon="1.63606">
        <ele>155.061</ele>
        <time>2018-07-31T22:18:21Z</time>
      </trkpt>
      <trkpt lat="44.79743" lon="1.63599">
        <ele>154.127</ele>
        <time>2018-07-31T22:18:01Z</time>
      </trkpt>
      <trkpt lat="44.79735" lon="1.63595">
        <ele>152.708</ele>
        <time>2018-07-31T22:17:41Z</time>
      </trkpt>
      <trkpt lat="44.79726" lon="1.63591">
        <ele>151.129</ele>
        <time>2018-07-31T22:17:21Z</time>
      </trkpt>
      <trkpt lat="44.79717" lon="1.63588">
        <ele>150.274</ele>
        <time>2018-07-31T22:17:01Z</time>
      </trkpt>
      <trkpt lat="44.79708" lon="1.63586">
        <ele>149.958</ele>
        <time>2018-07-31T22:16:41Z</time>
      </trkpt>
      <trkpt lat="44.79699" lon="1.63583">
        <ele>149.767</ele>
        <time>2018-07-31T22:16:21Z</time>
      </trkpt>
      <trkpt lat="44.79692" lon="1.63583">
        <ele>150.269</ele>
        <time>2018-07-31T22:16:01Z</time>
      </trkpt>
      <trkpt lat="44.79689" lon="1.63583">
        <ele>150.458</ele>
        <time>2018-07-31T22:15:41Z</time>
      </trkpt>
      <trkpt lat="44.79682" lon="1.63583">
        <ele>150.991</ele>
        <time>2018-07-31T22:15:21Z</time>
      </trkpt>
      <trkpt lat="44.79676" lon="1.63585">
        <ele>151.794</ele>
        <time>2018-07-31T22:15:01Z</time>
      </trkpt>
      <trkpt lat="44.79669" lon="1.63588">
        <ele>152.557</ele>
        <time>2018-07-31T22:14:41Z</time>
      </trkpt>
      <trkpt lat="44.79659" lon="1.63593">
        <ele>152.9</ele>
        <time>2018-07-31T22:14:21Z</time>
      </trkpt>
      <trkpt lat="44.7965" lon="1.63598">
        <ele>152.92</ele>
        <time>2018-07-31T22:14:01Z</time>
      </trkpt>
      <trkpt lat="44.79637" lon="1.63606">
        <ele>152.008</ele>
        <time>2018-07-31T22:13:41Z</time>
      </trkpt>
      <trkpt lat="44.79626" lon="1.63614">
        <ele>151.677</ele>
        <time>2018-07-31T22:13:21Z</time>
      </trkpt>
      <trkpt lat="44.79617" lon="1.63621">
        <ele>151.912</ele>
        <time>2018-07-31T22:13:01Z</time>
      </trkpt>
      <trkpt lat="44.79609" lon="1.63631">
        <ele>152.076</ele>
        <time>2018-07-31T22:12:41Z</time>
      </trkpt>
      <trkpt lat="44.79599" lon="1.63643">
        <ele>152.855</ele>
        <time>2018-07-31T22:12:21Z</time>
      </trkpt>
      <trkpt lat="44.79581" lon="1.63675">
        <ele>154.357</ele>
        <time>2018-07-31T22:12:01Z</time>
      </trkpt>
      <trkpt lat="44.79569" lon="1.63706">
        <ele>154.626</ele>
        <time>2018-07-31T22:11:41Z</time>
      </trkpt>
      <trkpt lat="44.79562" lon="1.63731">
        <ele>154.559</ele>
        <time>2018-07-31T22:11:21Z</time>
      </trkpt>
      <trkpt lat="44.79558" lon="1.63742">
        <ele>154.372</ele>
        <time>2018-07-31T22:11:01Z</time>
      </trkpt>
      <trkpt lat="44.79547" lon="1.63783">
        <ele>156.661</ele>
        <time>2018-07-31T22:10:41Z</time>
      </trkpt>
      <trkpt lat="44.79538" lon="1.63813">
        <ele>158.021</ele>
        <time>2018-07-31T22:10:21Z</time>
      </trkpt>
      <trkpt lat="44.79533" lon="1.63831">
        <ele>158.113</ele>
        <time>2018-07-31T22:10:01Z</time>
      </trkpt>
      <trkpt lat="44.7953" lon="1.63845">
        <ele>157.608</ele>
        <time>2018-07-31T22:09:41Z</time>
      </trkpt>
      <trkpt lat="44.79528" lon="1.63851">
        <ele>157.398</ele>
        <time>2018-07-31T22:09:21Z</time>
      </trkpt>
      <trkpt lat="44.79518" lon="1.63889">
        <ele>158.583</ele>
        <time>2018-07-31T22:09:01Z</time>
      </trkpt>
      <trkpt lat="44.79511" lon="1.63917">
        <ele>160.097</ele>
        <time>2018-07-31T22:08:41Z</time>
      </trkpt>
      <trkpt lat="44.79504" lon="1.63939">
        <ele>158.856</ele>
        <time>2018-07-31T22:08:21Z</time>
      </trkpt>
      <trkpt lat="44.79491" lon="1.63968">
        <ele>156.098</ele>
        <time>2018-07-31T22:08:01Z</time>
      </trkpt>
      <trkpt lat="44.79476" lon="1.64005">
        <ele>153.367</ele>
        <time>2018-07-31T22:07:41Z</time>
      </trkpt>
      <trkpt lat="44.79475" lon="1.64011">
        <ele>153.03</ele>
        <time>2018-07-31T22:07:21Z</time>
      </trkpt>
      <trkpt lat="44.79473" lon="1.64018">
        <ele>152.913</ele>
        <time>2018-07-31T22:07:01Z</time>
      </trkpt>
      <trkpt lat="44.79473" lon="1.64026">
        <ele>153.099</ele>
        <time>2018-07-31T22:06:41Z</time>
      </trkpt>
      <trkpt lat="44.79473" lon="1.64026">
        <ele>153.007</ele>
        <time>2018-07-31T22:06:21Z</time>
      </trkpt>
      <trkpt lat="44.79472" lon="1.64033">
        <ele>153.027</ele>
        <time>2018-07-31T22:06:01Z</time>
      </trkpt>
      <trkpt lat="44.79472" lon="1.64035">
        <ele>153.008</ele>
        <time>2018-07-31T22:05:41Z</time>
      </trkpt>
      <trkpt lat="44.79472" lon="1.64046">
        <ele>153.071</ele>
        <time>2018-07-31T22:05:21Z</time>
      </trkpt>
      <trkpt lat="44.79473" lon="1.64056">
        <ele>153.236</ele>
        <time>2018-07-31T22:05:01Z</time>
      </trkpt>
      <trkpt lat="44.79474" lon="1.64067">
        <ele>153.98</ele>
        <time>2018-07-31T22:04:41Z</time>
      </trkpt>
      <trkpt lat="44.79477" lon="1.64083">
        <ele>155.469</ele>
        <time>2018-07-31T22:04:21Z</time>
      </trkpt>
      <trkpt lat="44.7948" lon="1.64094">
        <ele>156.231</ele>
        <time>2018-07-31T22:04:01Z</time>
      </trkpt>
      <trkpt lat="44.79482" lon="1.64102">
        <ele>156.84</ele>
        <time>2018-07-31T22:03:41Z</time>
      </trkpt>
      <trkpt lat="44.7949" lon="1.64134">
        <ele>158.513</ele>
        <time>2018-07-31T22:03:21Z</time>
      </trkpt>
      <trkpt lat="44.79495" lon="1.64151">
        <ele>158.466</ele>
        <time>2018-07-31T22:03:01Z</time>
      </trkpt>
      <trkpt lat="44.795" lon="1.64164">
        <ele>157.584</ele>
        <time>2018-07-31T22:02:41Z</time>
      </trkpt>
      <trkpt lat="44.79505" lon="1.64174">
        <ele>157.507</ele>
        <time>2018-07-31T22:02:21Z</time>
      </trkpt>
      <trkpt lat="44.79505" lon="1.64176">
        <ele>157.617</ele>
        <time>2018-07-31T22:02:01Z</time>
      </trkpt>
      <trkpt lat="44.79511" lon="1.64184">
        <ele>158.008</ele>
        <time>2018-07-31T22:01:41Z</time>
      </trkpt>
      <trkpt lat="44.79518" lon="1.64194">
        <ele>158.34</ele>
        <time>2018-07-31T22:01:21Z</time>
      </trkpt>
      <trkpt lat="44.79539" lon="1.64222">
        <ele>160.185</ele>
        <time>2018-07-31T22:01:01Z</time>
      </trkpt>
      <trkpt lat="44.79556" lon="1.64251">
        <ele>160.189</ele>
        <time>2018-07-31T22:00:41Z</time>
      </trkpt>
      <trkpt lat="44.79563" lon="1.64261">
        <ele>160.028</ele>
        <time>2018-07-31T22:00:21Z</time>
      </trkpt>
      <trkpt lat="44.79568" lon="1.6427">
        <ele>159.05</ele>
        <time>2018-07-31T22:00:01Z</time>
      </trkpt>
      <trkpt lat="44.79571" lon="1.64276">
        <ele>158.029</ele>
        <time>2018-07-31T21:59:41Z</time>
      </trkpt>
      <trkpt lat="44.79578" lon="1.64283">
        <ele>157.532</ele>
        <time>2018-07-31T21:59:21Z</time>
      </trkpt>
      <trkpt lat="44.79582" lon="1.64286">
        <ele>157.415</ele>
        <time>2018-07-31T21:59:01Z</time>
      </trkpt>
      <trkpt lat="44.79588" lon="1.64289">
        <ele>157.398</ele>
        <time>2018-07-31T21:58:41Z</time>
      </trkpt>
      <trkpt lat="44.79595" lon="1.64291">
        <ele>157.315</ele>
        <time>2018-07-31T21:58:21Z</time>
      </trkpt>
      <trkpt lat="44.79603" lon="1.64291">
        <ele>157.526</ele>
        <time>2018-07-31T21:58:01Z</time>
      </trkpt>
      <trkpt lat="44.7961" lon="1.64288">
        <ele>157.808</ele>
        <time>2018-07-31T21:57:41Z</time>
      </trkpt>
      <trkpt lat="44.7962" lon="1.64284">
        <ele>158.621</ele>
        <time>2018-07-31T21:57:21Z</time>
      </trkpt>
      <trkpt lat="44.7963" lon="1.64278">
        <ele>159.756</ele>
        <time>2018-07-31T21:57:01Z</time>
      </trkpt>
      <trkpt lat="44.79638" lon="1.64274">
        <ele>160.81</ele>
        <time>2018-07-31T21:56:41Z</time>
      </trkpt>
      <trkpt lat="44.79638" lon="1.64274">
        <ele>160.999</ele>
        <time>2018-07-31T21:56:21Z</time>
      </trkpt>
      <trkpt lat="44.79656" lon="1.64262">
        <ele>164.551</ele>
        <time>2018-07-31T21:56:01Z</time>
      </trkpt>
      <trkpt lat="44.79662" lon="1.64257">
        <ele>166.03</ele>
        <time>2018-07-31T21:55:41Z</time>
      </trkpt>
      <trkpt lat="44.79665" lon="1.64254">
        <ele>166.953</ele>
        <time>2018-07-31T21:55:21Z</time>
      </trkpt>
      <trkpt lat="44.79669" lon="1.64252">
        <ele>167.286</ele>
        <time>2018-07-31T21:55:01Z</time>
      </trkpt>
      <trkpt lat="44.79688" lon="1.64238">
        <ele>168.643</ele>
        <time>2018-07-31T21:54:41Z</time>
      </trkpt>
      <trkpt lat="44.79694" lon="1.64235">
        <ele>168.564</ele>
        <time>2018-07-31T21:54:21Z</time>
      </trkpt>
      <trkpt lat="44.79701" lon="1.64233">
        <ele>168.71</ele>
        <time>2018-07-31T21:54:01Z</time>
      </trkpt>
      <trkpt lat="44.79708" lon="1.64232">
        <ele>169.008</ele>
        <time>2018-07-31T21:53:41Z</time>
      </trkpt>
      <trkpt lat="44.79716" lon="1.6423">
        <ele>169.266</ele>
        <time>2018-07-31T21:53:21Z</time>
      </trkpt>
      <trkpt lat="44.79725" lon="1.64229">
        <ele>169.111</ele>
        <time>2018-07-31T21:53:01Z</time>
      </trkpt>
      <trkpt lat="44.79732" lon="1.64229">
        <ele>168.735</ele>
        <time>2018-07-31T21:52:41Z</time>
      </trkpt>
      <trkpt lat="44.79738" lon="1.64229">
        <ele>168.324</ele>
        <time>2018-07-31T21:52:21Z</time>
      </trkpt>
      <trkpt lat="44.79747" lon="1.6423">
        <ele>167.546</ele>
        <time>2018-07-31T21:52:01Z</time>
      </trkpt>
      <trkpt lat="44.79756" lon="1.6423">
        <ele>166.435</ele>
        <time>2018-07-31T21:51:41Z</time>
      </trkpt>
      <trkpt lat="44.79762" lon="1.6423">
        <ele>165.358</ele>
        <time>2018-07-31T21:51:21Z</time>
      </trkpt>
      <trkpt lat="44.79772" lon="1.6423">
        <ele>163.531</ele>
        <time>2018-07-31T21:51:01Z</time>
      </trkpt>
      <trkpt lat="44.79781" lon="1.6423">
        <ele>162.491</ele>
        <time>2018-07-31T21:50:41Z</time>
      </trkpt>
      <trkpt lat="44.7979" lon="1.6423">
        <ele>161.981</ele>
        <time>2018-07-31T21:50:21Z</time>
      </trkpt>
      <trkpt lat="44.79798" lon="1.64229">
        <ele>161.519</ele>
        <time>2018-07-31T21:50:01Z</time>
      </trkpt>
      <trkpt lat="44.79803" lon="1.64229">
        <ele>161.208</ele>
        <time>2018-07-31T21:49:41Z</time>
      </trkpt>
      <trkpt lat="44.7981" lon="1.64227">
        <ele>161.621</ele>
        <time>2018-07-31T21:49:21Z</time>
      </trkpt>
      <trkpt lat="44.79812" lon="1.64226">
        <ele>161.816</ele>
        <time>2018-07-31T21:49:01Z</time>
      </trkpt>
      <trkpt lat="44.79817" lon="1.64225">
        <ele>162.38</ele>
        <time>2018-07-31T21:48:41Z</time>
      </trkpt>
      <trkpt lat="44.79824" lon="1.64221">
        <ele>163.719</ele>
        <time>2018-07-31T21:48:21Z</time>
      </trkpt>
      <trkpt lat="44.79828" lon="1.64218">
        <ele>164.751</ele>
        <time>2018-07-31T21:48:01Z</time>
      </trkpt>
      <trkpt lat="44.79829" lon="1.64217">
        <ele>164.93</ele>
        <time>2018-07-31T21:47:41Z</time>
      </trkpt>
      <trkpt lat="44.79834" lon="1.64212">
        <ele>166.183</ele>
        <time>2018-07-31T21:47:21Z</time>
      </trkpt>
      <trkpt lat="44.79835" lon="1.64212">
        <ele>166.156</ele>
        <time>2018-07-31T21:47:01Z</time>
      </trkpt>
      <trkpt lat="44.79837" lon="1.64209">
        <ele>166.481</ele>
        <time>2018-07-31T21:46:41Z</time>
      </trkpt>
      <trkpt lat="44.79839" lon="1.64208">
        <ele>166.661</ele>
        <time>2018-07-31T21:46:21Z</time>
      </trkpt>
      <trkpt lat="44.79843" lon="1.64203">
        <ele>167.217</ele>
        <time>2018-07-31T21:46:01Z</time>
      </trkpt>
      <trkpt lat="44.79848" lon="1.64198">
        <ele>167.808</ele>
        <time>2018-07-31T21:45:41Z</time>
      </trkpt>
      <trkpt lat="44.79853" lon="1.64195">
        <ele>167.91</ele>
        <time>2018-07-31T21:45:21Z</time>
      </trkpt>
      <trkpt lat="44.79858" lon="1.64193">
        <ele>167.685</ele>
        <time>2018-07-31T21:45:01Z</time>
      </trkpt>
      <trkpt lat="44.79864" lon="1.64193">
        <ele>167.879</ele>
        <time>2018-07-31T21:44:41Z</time>
      </trkpt>
      <trkpt lat="44.7987" lon="1.64192">
        <ele>168.528</ele>
        <time>2018-07-31T21:44:21Z</time>
      </trkpt>
      <trkpt lat="44.79874" lon="1.64194">
        <ele>168.57</ele>
        <time>2018-07-31T21:44:01Z</time>
      </trkpt>
      <trkpt lat="44.79879" lon="1.64197">
        <ele>168.289</ele>
        <time>2018-07-31T21:43:41Z</time>
      </trkpt>
      <trkpt lat="44.79884" lon="1.64203">
        <ele>167.082</ele>
        <time>2018-07-31T21:43:21Z</time>
      </trkpt>
      <trkpt lat="44.7989" lon="1.64208">
        <ele>166.315</ele>
        <time>2018-07-31T21:43:01Z</time>
      </trkpt>
      <trkpt lat="44.79896" lon="1.64218">
        <ele>165.787</ele>
        <time>2018-07-31T21:42:41Z</time>
      </trkpt>
      <trkpt lat="44.79899" lon="1.64226">
        <ele>165.242</ele>
        <time>2018-07-31T21:42:21Z</time>
      </trkpt>
      <trkpt lat="44.79902" lon="1.64233">
        <ele>164.626</ele>
        <time>2018-07-31T21:42:01Z</time>
      </trkpt>
      <trkpt lat="44.79905" lon="1.64241">
        <ele>164.208</ele>
        <time>2018-07-31T21:41:41Z</time>
      </trkpt>
      <trkpt lat="44.79908" lon="1.64249">
        <ele>163.61</ele>
        <time>2018-07-31T21:41:21Z</time>
      </trkpt>
      <trkpt lat="44.79911" lon="1.6426">
        <ele>163.295</ele>
        <time>2018-07-31T21:41:01Z</time>
      </trkpt>
      <trkpt lat="44.79916" lon="1.64277">
        <ele>161.979</ele>
        <time>2018-07-31T21:40:41Z</time>
      </trkpt>
      <trkpt lat="44.7992" lon="1.64289">
        <ele>161.648</ele>
        <time>2018-07-31T21:40:21Z</time>
      </trkpt>
      <trkpt lat="44.79921" lon="1.64296">
        <ele>161.38</ele>
        <time>2018-07-31T21:40:01Z</time>
      </trkpt>
      <trkpt lat="44.79921" lon="1.64296">
        <ele>161.359</ele>
        <time>2018-07-31T21:39:41Z</time>
      </trkpt>
      <trkpt lat="44.79922" lon="1.643">
        <ele>161.172</ele>
        <time>2018-07-31T21:39:21Z</time>
      </trkpt>
      <trkpt lat="44.79925" lon="1.64311">
        <ele>161.345</ele>
        <time>2018-07-31T21:39:01Z</time>
      </trkpt>
      <trkpt lat="44.79927" lon="1.64316">
        <ele>161.854</ele>
        <time>2018-07-31T21:38:41Z</time>
      </trkpt>
      <trkpt lat="44.79929" lon="1.64321">
        <ele>162.356</ele>
        <time>2018-07-31T21:38:21Z</time>
      </trkpt>
      <trkpt lat="44.79932" lon="1.64326">
        <ele>163.011</ele>
        <time>2018-07-31T21:38:01Z</time>
      </trkpt>
      <trkpt lat="44.7993" lon="1.64344">
        <ele>161.708</ele>
        <time>2018-07-31T21:37:41Z</time>
      </trkpt>
      <trkpt lat="44.79928" lon="1.64357">
        <ele>161.077</ele>
        <time>2018-07-31T21:37:21Z</time>
      </trkpt>
      <trkpt lat="44.79926" lon="1.64361">
        <ele>160.732</ele>
        <time>2018-07-31T21:37:01Z</time>
      </trkpt>
      <trkpt lat="44.79922" lon="1.64374">
        <ele>160.196</ele>
        <time>2018-07-31T21:36:41Z</time>
      </trkpt>
      <trkpt lat="44.7992" lon="1.64379">
        <ele>159.845</ele>
        <time>2018-07-31T21:36:21Z</time>
      </trkpt>
      <trkpt lat="44.7992" lon="1.64384">
        <ele>159.757</ele>
        <time>2018-07-31T21:36:01Z</time>
      </trkpt>
      <trkpt lat="44.7992" lon="1.64388">
        <ele>159.716</ele>
        <time>2018-07-31T21:35:41Z</time>
      </trkpt>
      <trkpt lat="44.7992" lon="1.64391">
        <ele>159.849</ele>
        <time>2018-07-31T21:35:21Z</time>
      </trkpt>
      <trkpt lat="44.7992" lon="1.64397">
        <ele>160.142</ele>
        <time>2018-07-31T21:35:01Z</time>
      </trkpt>
      <trkpt lat="44.7992" lon="1.64397">
        <ele>160.267</ele>
        <time>2018-07-31T21:34:41Z</time>
      </trkpt>
      <trkpt lat="44.7992" lon="1.64398">
        <ele>160.281</ele>
        <time>2018-07-31T21:34:21Z</time>
      </trkpt>
      <trkpt lat="44.7992" lon="1.64405">
        <ele>160.619</ele>
        <time>2018-07-31T21:34:01Z</time>
      </trkpt>
      <trkpt lat="44.79927" lon="1.64445">
        <ele>164.408</ele>
        <time>2018-07-31T21:33:41Z</time>
      </trkpt>
      <trkpt lat="44.79934" lon="1.64476">
        <ele>166.858</ele>
        <time>2018-07-31T21:33:21Z</time>
      </trkpt>
      <trkpt lat="44.79939" lon="1.64508">
        <ele>166.993</ele>
        <time>2018-07-31T21:33:01Z</time>
      </trkpt>
      <trkpt lat="44.79943" lon="1.64553">
        <ele>166.057</ele>
        <time>2018-07-31T21:32:41Z</time>
      </trkpt>
      <trkpt lat="44.79945" lon="1.64585">
        <ele>165.216</ele>
        <time>2018-07-31T21:32:21Z</time>
      </trkpt>
      <trkpt lat="44.79946" lon="1.64598">
        <ele>164.488</ele>
        <time>2018-07-31T21:32:01Z</time>
      </trkpt>
      <trkpt lat="44.79945" lon="1.64606">
        <ele>163.857</ele>
        <time>2018-07-31T21:31:41Z</time>
      </trkpt>
      <trkpt lat="44.79945" lon="1.64623">
        <ele>163.34</ele>
        <time>2018-07-31T21:31:21Z</time>
      </trkpt>
      <trkpt lat="44.79946" lon="1.64635">
        <ele>163.473</ele>
        <time>2018-07-31T21:31:01Z</time>
      </trkpt>
      <trkpt lat="44.79946" lon="1.64642">
        <ele>163.741</ele>
        <time>2018-07-31T21:30:41Z</time>
      </trkpt>
      <trkpt lat="44.7995" lon="1.64666">
        <ele>165.881</ele>
        <time>2018-07-31T21:30:21Z</time>
      </trkpt>
      <trkpt lat="44.79952" lon="1.64676">
        <ele>167.909</ele>
        <time>2018-07-31T21:30:01Z</time>
      </trkpt>
      <trkpt lat="44.79961" lon="1.64696">
        <ele>172.208</ele>
        <time>2018-07-31T21:29:41Z</time>
      </trkpt>
      <trkpt lat="44.79963" lon="1.647">
        <ele>172.846</ele>
        <time>2018-07-31T21:29:21Z</time>
      </trkpt>
      <trkpt lat="44.79967" lon="1.64712">
        <ele>173.981</ele>
        <time>2018-07-31T21:29:01Z</time>
      </trkpt>
      <trkpt lat="44.79969" lon="1.64721">
        <ele>174.565</ele>
        <time>2018-07-31T21:28:41Z</time>
      </trkpt>
      <trkpt lat="44.7997" lon="1.64722">
        <ele>174.554</ele>
        <time>2018-07-31T21:28:21Z</time>
      </trkpt>
      <trkpt lat="44.79971" lon="1.64726">
        <ele>174.046</ele>
        <time>2018-07-31T21:28:01Z</time>
      </trkpt>
      <trkpt lat="44.79973" lon="1.64734">
        <ele>172.655</ele>
        <time>2018-07-31T21:27:41Z</time>
      </trkpt>
      <trkpt lat="44.79976" lon="1.64747">
        <ele>170.788</ele>
        <time>2018-07-31T21:27:21Z</time>
      </trkpt>
      <trkpt lat="44.79977" lon="1.64756">
        <ele>170.231</ele>
        <time>2018-07-31T21:27:01Z</time>
      </trkpt>
      <trkpt lat="44.79979" lon="1.64765">
        <ele>169.697</ele>
        <time>2018-07-31T21:26:41Z</time>
      </trkpt>
      <trkpt lat="44.7998" lon="1.64774">
        <ele>169.123</ele>
        <time>2018-07-31T21:26:21Z</time>
      </trkpt>
      <trkpt lat="44.79982" lon="1.64784">
        <ele>168.925</ele>
        <time>2018-07-31T21:26:01Z</time>
      </trkpt>
      <trkpt lat="44.79983" lon="1.6479">
        <ele>168.908</ele>
        <time>2018-07-31T21:25:41Z</time>
      </trkpt>
      <trkpt lat="44.79984" lon="1.64794">
        <ele>168.931</ele>
        <time>2018-07-31T21:25:21Z</time>
      </trkpt>
      <trkpt lat="44.79986" lon="1.64804">
        <ele>169.156</ele>
        <time>2018-07-31T21:25:01Z</time>
      </trkpt>
      <trkpt lat="44.79988" lon="1.6481">
        <ele>169.65</ele>
        <time>2018-07-31T21:24:41Z</time>
      </trkpt>
      <trkpt lat="44.79988" lon="1.64817">
        <ele>170.179</ele>
        <time>2018-07-31T21:24:21Z</time>
      </trkpt>
      <trkpt lat="44.79989" lon="1.64823">
        <ele>170.361</ele>
        <time>2018-07-31T21:24:01Z</time>
      </trkpt>
      <trkpt lat="44.79989" lon="1.64828">
        <ele>170.55</ele>
        <time>2018-07-31T21:23:41Z</time>
      </trkpt>
      <trkpt lat="44.79987" lon="1.64834">
        <ele>170.473</ele>
        <time>2018-07-31T21:23:21Z</time>
      </trkpt>
      <trkpt lat="44.79979" lon="1.64863">
        <ele>169.966</ele>
        <time>2018-07-31T21:23:01Z</time>
      </trkpt>
      <trkpt lat="44.79974" lon="1.6488">
        <ele>169.826</ele>
        <time>2018-07-31T21:22:41Z</time>
      </trkpt>
      <trkpt lat="44.79968" lon="1.64899">
        <ele>171.247</ele>
        <time>2018-07-31T21:22:21Z</time>
      </trkpt>
      <trkpt lat="44.7996" lon="1.64924">
        <ele>172.611</ele>
        <time>2018-07-31T21:22:01Z</time>
      </trkpt>
      <trkpt lat="44.7996" lon="1.64954">
        <ele>173.708</ele>
        <time>2018-07-31T21:21:41Z</time>
      </trkpt>
      <trkpt lat="44.79959" lon="1.64967">
        <ele>173.634</ele>
        <time>2018-07-31T21:21:21Z</time>
      </trkpt>
      <trkpt lat="44.79961" lon="1.64997">
        <ele>173.629</ele>
        <time>2018-07-31T21:21:01Z</time>
      </trkpt>
      <trkpt lat="44.7996" lon="1.65">
        <ele>173.413</ele>
        <time>2018-07-31T21:20:41Z</time>
      </trkpt>
      <trkpt lat="44.79958" lon="1.65009">
        <ele>172.632</ele>
        <time>2018-07-31T21:20:21Z</time>
      </trkpt>
      <trkpt lat="44.79945" lon="1.65015">
        <ele>169.784</ele>
        <time>2018-07-31T21:20:01Z</time>
      </trkpt>
      <trkpt lat="44.79941" lon="1.65017">
        <ele>170.023</ele>
        <time>2018-07-31T21:19:41Z</time>
      </trkpt>
      <trkpt lat="44.79939" lon="1.65019">
        <ele>170.376</ele>
        <time>2018-07-31T21:19:21Z</time>
      </trkpt>
      <trkpt lat="44.79935" lon="1.65027">
        <ele>170.849</ele>
        <time>2018-07-31T21:19:01Z</time>
      </trkpt>
      <trkpt lat="44.79935" lon="1.65031">
        <ele>170.729</ele>
        <time>2018-07-31T21:18:41Z</time>
      </trkpt>
      <trkpt lat="44.79933" lon="1.65053">
        <ele>170.5</ele>
        <time>2018-07-31T21:18:21Z</time>
      </trkpt>
      <trkpt lat="44.79966" lon="1.65115">
        <ele>170.12</ele>
        <time>2018-07-31T21:18:01Z</time>
      </trkpt>
      <trkpt lat="44.79977" lon="1.65143">
        <ele>171.308</ele>
        <time>2018-07-31T21:17:41Z</time>
      </trkpt>
      <trkpt lat="44.7998" lon="1.65182">
        <ele>173.814</ele>
        <time>2018-07-31T21:17:21Z</time>
      </trkpt>
      <trkpt lat="44.7998" lon="1.65204">
        <ele>175.029</ele>
        <time>2018-07-31T21:17:01Z</time>
      </trkpt>
      <trkpt lat="44.79979" lon="1.65211">
        <ele>175.443</ele>
        <time>2018-07-31T21:16:41Z</time>
      </trkpt>
      <trkpt lat="44.79976" lon="1.65228">
        <ele>176.542</ele>
        <time>2018-07-31T21:16:21Z</time>
      </trkpt>
      <trkpt lat="44.79965" lon="1.65247">
        <ele>178.684</ele>
        <time>2018-07-31T21:16:01Z</time>
      </trkpt>
      <trkpt lat="44.79949" lon="1.65257">
        <ele>182.213</ele>
        <time>2018-07-31T21:15:41Z</time>
      </trkpt>
      <trkpt lat="44.79912" lon="1.65274">
        <ele>187.196</ele>
        <time>2018-07-31T21:15:21Z</time>
      </trkpt>
      <trkpt lat="44.79904" lon="1.65281">
        <ele>187.889</ele>
        <time>2018-07-31T21:15:01Z</time>
      </trkpt>
      <trkpt lat="44.79895" lon="1.6529">
        <ele>188.327</ele>
        <time>2018-07-31T21:14:41Z</time>
      </trkpt>
      <trkpt lat="44.79876" lon="1.65314">
        <ele>194.868</ele>
        <time>2018-07-31T21:14:21Z</time>
      </trkpt>
      <trkpt lat="44.79856" lon="1.6535">
        <ele>206.114</ele>
        <time>2018-07-31T21:14:01Z</time>
      </trkpt>
      <trkpt lat="44.79846" lon="1.65369">
        <ele>212.308</ele>
        <time>2018-07-31T21:13:41Z</time>
      </trkpt>
      <trkpt lat="44.79841" lon="1.65391">
        <ele>214.194</ele>
        <time>2018-07-31T21:13:21Z</time>
      </trkpt>
      <trkpt lat="44.79838" lon="1.65421">
        <ele>211.479</ele>
        <time>2018-07-31T21:13:01Z</time>
      </trkpt>
      <trkpt lat="44.79844" lon="1.65445">
        <ele>204.593</ele>
        <time>2018-07-31T21:12:41Z</time>
      </trkpt>
      <trkpt lat="44.79846" lon="1.65453">
        <ele>203.412</ele>
        <time>2018-07-31T21:12:21Z</time>
      </trkpt>
      <trkpt lat="44.79847" lon="1.65458">
        <ele>203.094</ele>
        <time>2018-07-31T21:12:01Z</time>
      </trkpt>
      <trkpt lat="44.79853" lon="1.65474">
        <ele>200.913</ele>
        <time>2018-07-31T21:11:41Z</time>
      </trkpt>
      <trkpt lat="44.79866" lon="1.65503">
        <ele>192.546</ele>
        <time>2018-07-31T21:11:21Z</time>
      </trkpt>
      <trkpt lat="44.7987" lon="1.65521">
        <ele>189.589</ele>
        <time>2018-07-31T21:11:01Z</time>
      </trkpt>
      <trkpt lat="44.7987" lon="1.65541">
        <ele>188.055</ele>
        <time>2018-07-31T21:10:41Z</time>
      </trkpt>
      <trkpt lat="44.79862" lon="1.65565">
        <ele>188.907</ele>
        <time>2018-07-31T21:10:21Z</time>
      </trkpt>
      <trkpt lat="44.79855" lon="1.65575">
        <ele>194.117</ele>
        <time>2018-07-31T21:10:01Z</time>
      </trkpt>
      <trkpt lat="44.79854" lon="1.65582">
        <ele>194.408</ele>
        <time>2018-07-31T21:09:41Z</time>
      </trkpt>
      <trkpt lat="44.79852" lon="1.656">
        <ele>194.977</ele>
        <time>2018-07-31T21:09:21Z</time>
      </trkpt>
      <trkpt lat="44.79852" lon="1.65609">
        <ele>194.432</ele>
        <time>2018-07-31T21:09:01Z</time>
      </trkpt>
      <trkpt lat="44.79852" lon="1.65622">
        <ele>194.966</ele>
        <time>2018-07-31T21:08:41Z</time>
      </trkpt>
      <trkpt lat="44.79861" lon="1.65642">
        <ele>193.065</ele>
        <time>2018-07-31T21:08:21Z</time>
      </trkpt>
      <trkpt lat="44.79889" lon="1.65645">
        <ele>186.637</ele>
        <time>2018-07-31T21:08:01Z</time>
      </trkpt>
      <trkpt lat="44.79901" lon="1.65645">
        <ele>185.896</ele>
        <time>2018-07-31T21:07:41Z</time>
      </trkpt>
      <trkpt lat="44.79902" lon="1.65646">
        <ele>185.979</ele>
        <time>2018-07-31T21:07:21Z</time>
      </trkpt>
      <trkpt lat="44.79917" lon="1.65646">
        <ele>184.912</ele>
        <time>2018-07-31T21:07:01Z</time>
      </trkpt>
      <trkpt lat="44.79931" lon="1.65647">
        <ele>183.141</ele>
        <time>2018-07-31T21:06:41Z</time>
      </trkpt>
      <trkpt lat="44.79942" lon="1.65647">
        <ele>181.681</ele>
        <time>2018-07-31T21:06:21Z</time>
      </trkpt>
      <trkpt lat="44.79969" lon="1.65658">
        <ele>180.809</ele>
        <time>2018-07-31T21:06:01Z</time>
      </trkpt>
      <trkpt lat="44.79976" lon="1.65661">
        <ele>181.108</ele>
        <time>2018-07-31T21:05:41Z</time>
      </trkpt>
      <trkpt lat="44.79987" lon="1.65666">
        <ele>182.186</ele>
        <time>2018-07-31T21:05:21Z</time>
      </trkpt>
      <trkpt lat="44.80006" lon="1.65687">
        <ele>186.451</ele>
        <time>2018-07-31T21:05:01Z</time>
      </trkpt>
      <trkpt lat="44.80019" lon="1.65717">
        <ele>190.355</ele>
        <time>2018-07-31T21:04:41Z</time>
      </trkpt>
      <trkpt lat="44.80032" lon="1.65752">
        <ele>191.484</ele>
        <time>2018-07-31T21:04:21Z</time>
      </trkpt>
      <trkpt lat="44.80039" lon="1.65787">
        <ele>191.736</ele>
        <time>2018-07-31T21:04:01Z</time>
      </trkpt>
      <trkpt lat="44.8004" lon="1.65799">
        <ele>191.225</ele>
        <time>2018-07-31T21:03:41Z</time>
      </trkpt>
      <trkpt lat="44.80039" lon="1.65827">
        <ele>189.138</ele>
        <time>2018-07-31T21:03:21Z</time>
      </trkpt>
      <trkpt lat="44.80039" lon="1.65839">
        <ele>188.121</ele>
        <time>2018-07-31T21:03:01Z</time>
      </trkpt>
      <trkpt lat="44.80035" lon="1.65847">
        <ele>187.412</ele>
        <time>2018-07-31T21:02:41Z</time>
      </trkpt>
      <trkpt lat="44.80021" lon="1.65877">
        <ele>186.832</ele>
        <time>2018-07-31T21:02:21Z</time>
      </trkpt>
      <trkpt lat="44.79998" lon="1.65905">
        <ele>189.905</ele>
        <time>2018-07-31T21:02:01Z</time>
      </trkpt>
      <trkpt lat="44.79993" lon="1.6591">
        <ele>190.508</ele>
        <time>2018-07-31T21:01:41Z</time>
      </trkpt>
      <trkpt lat="44.79992" lon="1.65912">
        <ele>190.423</ele>
        <time>2018-07-31T21:01:21Z</time>
      </trkpt>
      <trkpt lat="44.79982" lon="1.65924">
        <ele>191.568</ele>
        <time>2018-07-31T21:01:01Z</time>
      </trkpt>
      <trkpt lat="44.79967" lon="1.65966">
        <ele>190.942</ele>
        <time>2018-07-31T21:00:41Z</time>
      </trkpt>
      <trkpt lat="44.79966" lon="1.6597">
        <ele>190.771</ele>
        <time>2018-07-31T21:00:21Z</time>
      </trkpt>
      <trkpt lat="44.79966" lon="1.65977">
        <ele>190.783</ele>
        <time>2018-07-31T21:00:01Z</time>
      </trkpt>
      <trkpt lat="44.7996" lon="1.66037">
        <ele>191.222</ele>
        <time>2018-07-31T20:59:41Z</time>
      </trkpt>
      <trkpt lat="44.7996" lon="1.66077">
        <ele>191.215</ele>
        <time>2018-07-31T20:59:21Z</time>
      </trkpt>
      <trkpt lat="44.79956" lon="1.661">
        <ele>189.428</ele>
        <time>2018-07-31T20:59:01Z</time>
      </trkpt>
      <trkpt lat="44.79951" lon="1.66122">
        <ele>189.616</ele>
        <time>2018-07-31T20:58:41Z</time>
      </trkpt>
      <trkpt lat="44.79944" lon="1.66129">
        <ele>189.176</ele>
        <time>2018-07-31T20:58:21Z</time>
      </trkpt>
      <trkpt lat="44.79938" lon="1.66134">
        <ele>189.413</ele>
        <time>2018-07-31T20:58:01Z</time>
      </trkpt>
      <trkpt lat="44.7991" lon="1.66137">
        <ele>186.908</ele>
        <time>2018-07-31T20:57:41Z</time>
      </trkpt>
      <trkpt lat="44.79903" lon="1.66138">
        <ele>187.053</ele>
        <time>2018-07-31T20:57:21Z</time>
      </trkpt>
      <trkpt lat="44.79899" lon="1.66139">
        <ele>187.018</ele>
        <time>2018-07-31T20:57:01Z</time>
      </trkpt>
      <trkpt lat="44.79886" lon="1.66138">
        <ele>187.112</ele>
        <time>2018-07-31T20:56:41Z</time>
      </trkpt>
      <trkpt lat="44.79881" lon="1.66138">
        <ele>187.341</ele>
        <time>2018-07-31T20:56:21Z</time>
      </trkpt>
      <trkpt lat="44.79869" lon="1.66137">
        <ele>187.773</ele>
        <time>2018-07-31T20:56:01Z</time>
      </trkpt>
      <trkpt lat="44.79841" lon="1.66135">
        <ele>188.262</ele>
        <time>2018-07-31T20:55:41Z</time>
      </trkpt>
      <trkpt lat="44.79817" lon="1.66136">
        <ele>188.745</ele>
        <time>2018-07-31T20:55:21Z</time>
      </trkpt>
      <trkpt lat="44.79784" lon="1.66138">
        <ele>188.248</ele>
        <time>2018-07-31T20:55:01Z</time>
      </trkpt>
      <trkpt lat="44.79754" lon="1.66146">
        <ele>189.569</ele>
        <time>2018-07-31T20:54:41Z</time>
      </trkpt>
      <trkpt lat="44.79728" lon="1.66165">
        <ele>191.104</ele>
        <time>2018-07-31T20:54:21Z</time>
      </trkpt>
      <trkpt lat="44.79722" lon="1.66168">
        <ele>191.224</ele>
        <time>2018-07-31T20:54:01Z</time>
      </trkpt>
      <trkpt lat="44.79683" lon="1.66196">
        <ele>194.108</ele>
        <time>2018-07-31T20:53:41Z</time>
      </trkpt>
      <trkpt lat="44.79669" lon="1.6622">
        <ele>196.188</ele>
        <time>2018-07-31T20:53:21Z</time>
      </trkpt>
      <trkpt lat="44.79663" lon="1.66226">
        <ele>196.763</ele>
        <time>2018-07-31T20:53:01Z</time>
      </trkpt>
      <trkpt lat="44.79642" lon="1.66248">
        <ele>197.447</ele>
        <time>2018-07-31T20:52:41Z</time>
      </trkpt>
      <trkpt lat="44.79598" lon="1.66292">
        <ele>203.246</ele>
        <time>2018-07-31T20:52:21Z</time>
      </trkpt>
      <trkpt lat="44.79581" lon="1.66312">
        <ele>208.568</ele>
        <time>2018-07-31T20:52:01Z</time>
      </trkpt>
      <trkpt lat="44.79576" lon="1.66318">
        <ele>210.067</ele>
        <time>2018-07-31T20:51:41Z</time>
      </trkpt>
      <trkpt lat="44.7957" lon="1.66321">
        <ele>209.42</ele>
        <time>2018-07-31T20:51:21Z</time>
      </trkpt>
      <trkpt lat="44.79556" lon="1.66324">
        <ele>206.163</ele>
        <time>2018-07-31T20:51:01Z</time>
      </trkpt>
      <trkpt lat="44.79553" lon="1.66324">
        <ele>205.162</ele>
        <time>2018-07-31T20:50:41Z</time>
      </trkpt>
      <trkpt lat="44.79549" lon="1.66325">
        <ele>203.983</ele>
        <time>2018-07-31T20:50:21Z</time>
      </trkpt>
      <trkpt lat="44.7954" lon="1.66326">
        <ele>201.311</ele>
        <time>2018-07-31T20:50:01Z</time>
      </trkpt>
      <trkpt lat="44.79532" lon="1.66327">
        <ele>198.408</ele>
        <time>2018-07-31T20:49:41Z</time>
      </trkpt>
      <trkpt lat="44.79519" lon="1.66332">
        <ele>196.438</ele>
        <time>2018-07-31T20:49:21Z</time>
      </trkpt>
      <trkpt lat="44.79518" lon="1.66333">
        <ele>196.253</ele>
        <time>2018-07-31T20:49:01Z</time>
      </trkpt>
      <trkpt lat="44.79504" lon="1.66343">
        <ele>195.867</ele>
        <time>2018-07-31T20:48:41Z</time>
      </trkpt>
      <trkpt lat="44.79493" lon="1.66348">
        <ele>196.156</ele>
        <time>2018-07-31T20:48:21Z</time>
      </trkpt>
      <trkpt lat="44.79478" lon="1.66355">
        <ele>195.938</ele>
        <time>2018-07-31T20:48:01Z</time>
      </trkpt>
      <trkpt lat="44.79475" lon="1.66363">
        <ele>195.687</ele>
        <time>2018-07-31T20:47:41Z</time>
      </trkpt>
      <trkpt lat="44.79467" lon="1.66384">
        <ele>197.67</ele>
        <time>2018-07-31T20:47:21Z</time>
      </trkpt>
      <trkpt lat="44.79463" lon="1.66397">
        <ele>199.123</ele>
        <time>2018-07-31T20:47:01Z</time>
      </trkpt>
      <trkpt lat="44.79459" lon="1.66407">
        <ele>199.759</ele>
        <time>2018-07-31T20:46:41Z</time>
      </trkpt>
      <trkpt lat="44.79457" lon="1.66416">
        <ele>199.903</ele>
        <time>2018-07-31T20:46:21Z</time>
      </trkpt>
      <trkpt lat="44.79454" lon="1.66425">
        <ele>200.923</ele>
        <time>2018-07-31T20:46:01Z</time>
      </trkpt>
      <trkpt lat="44.79443" lon="1.66442">
        <ele>199.708</ele>
        <time>2018-07-31T20:45:41Z</time>
      </trkpt>
      <trkpt lat="44.79419" lon="1.66477">
        <ele>198.867</ele>
        <time>2018-07-31T20:45:21Z</time>
      </trkpt>
      <trkpt lat="44.79414" lon="1.66492">
        <ele>199.862</ele>
        <time>2018-07-31T20:45:01Z</time>
      </trkpt>
      <trkpt lat="44.79391" lon="1.66561">
        <ele>202.396</ele>
        <time>2018-07-31T20:44:41Z</time>
      </trkpt>
      <trkpt lat="44.79387" lon="1.66573">
        <ele>202.145</ele>
        <time>2018-07-31T20:44:21Z</time>
      </trkpt>
      <trkpt lat="44.79385" lon="1.6659">
        <ele>202.077</ele>
        <time>2018-07-31T20:44:01Z</time>
      </trkpt>
      <trkpt lat="44.79382" lon="1.66622">
        <ele>201.146</ele>
        <time>2018-07-31T20:43:41Z</time>
      </trkpt>
      <trkpt lat="44.7938" lon="1.66632">
        <ele>200.799</ele>
        <time>2018-07-31T20:43:21Z</time>
      </trkpt>
      <trkpt lat="44.79385" lon="1.66648">
        <ele>199.412</ele>
        <time>2018-07-31T20:43:01Z</time>
      </trkpt>
      <trkpt lat="44.79395" lon="1.66683">
        <ele>199.998</ele>
        <time>2018-07-31T20:42:41Z</time>
      </trkpt>
      <trkpt lat="44.79408" lon="1.66715">
        <ele>200.015</ele>
        <time>2018-07-31T20:42:21Z</time>
      </trkpt>
      <trkpt lat="44.79408" lon="1.66716">
        <ele>200.026</ele>
        <time>2018-07-31T20:42:01Z</time>
      </trkpt>
      <trkpt lat="44.7941" lon="1.6672">
        <ele>199.908</ele>
        <time>2018-07-31T20:41:41Z</time>
      </trkpt>
      <trkpt lat="44.79416" lon="1.66734">
        <ele>199.171</ele>
        <time>2018-07-31T20:41:21Z</time>
      </trkpt>
      <trkpt lat="44.79416" lon="1.66736">
        <ele>199.096</ele>
        <time>2018-07-31T20:41:01Z</time>
      </trkpt>
      <trkpt lat="44.79424" lon="1.66756">
        <ele>200.95</ele>
        <time>2018-07-31T20:40:41Z</time>
      </trkpt>
      <trkpt lat="44.79425" lon="1.66763">
        <ele>201.549</ele>
        <time>2018-07-31T20:40:21Z</time>
      </trkpt>
      <trkpt lat="44.79426" lon="1.66766">
        <ele>201.721</ele>
        <time>2018-07-31T20:40:01Z</time>
      </trkpt>
      <trkpt lat="44.79427" lon="1.66773">
        <ele>202.22</ele>
        <time>2018-07-31T20:39:41Z</time>
      </trkpt>
      <trkpt lat="44.79428" lon="1.66776">
        <ele>202.623</ele>
        <time>2018-07-31T20:39:21Z</time>
      </trkpt>
      <trkpt lat="44.79428" lon="1.66791">
        <ele>203.346</ele>
        <time>2018-07-31T20:39:01Z</time>
      </trkpt>
      <trkpt lat="44.79427" lon="1.66801">
        <ele>203.611</ele>
        <time>2018-07-31T20:38:41Z</time>
      </trkpt>
      <trkpt lat="44.79418" lon="1.66831">
        <ele>202.521</ele>
        <time>2018-07-31T20:38:21Z</time>
      </trkpt>
      <trkpt lat="44.79414" lon="1.66846">
        <ele>202.603</ele>
        <time>2018-07-31T20:38:01Z</time>
      </trkpt>
      <trkpt lat="44.79412" lon="1.66851">
        <ele>202.708</ele>
        <time>2018-07-31T20:37:41Z</time>
      </trkpt>
      <trkpt lat="44.79412" lon="1.66852">
        <ele>202.793</ele>
        <time>2018-07-31T20:37:21Z</time>
      </trkpt>
      <trkpt lat="44.79407" lon="1.66862">
        <ele>202.768</ele>
        <time>2018-07-31T20:37:01Z</time>
      </trkpt>
      <trkpt lat="44.79398" lon="1.66877">
        <ele>202.942</ele>
        <time>2018-07-31T20:36:41Z</time>
      </trkpt>
      <trkpt lat="44.7938" lon="1.66895">
        <ele>202.471</ele>
        <time>2018-07-31T20:36:21Z</time>
      </trkpt>
      <trkpt lat="44.79365" lon="1.66911">
        <ele>201.033</ele>
        <time>2018-07-31T20:36:01Z</time>
      </trkpt>
      <trkpt lat="44.79363" lon="1.66913">
        <ele>200.632</ele>
        <time>2018-07-31T20:35:41Z</time>
      </trkpt>
      <trkpt lat="44.79355" lon="1.66924">
        <ele>202.265</ele>
        <time>2018-07-31T20:35:21Z</time>
      </trkpt>
      <trkpt lat="44.79337" lon="1.66942">
        <ele>201.968</ele>
        <time>2018-07-31T20:35:01Z</time>
      </trkpt>
      <trkpt lat="44.79294" lon="1.6699">
        <ele>204.427</ele>
        <time>2018-07-31T20:34:41Z</time>
      </trkpt>
      <trkpt lat="44.79264" lon="1.67011">
        <ele>206.268</ele>
        <time>2018-07-31T20:34:21Z</time>
      </trkpt>
      <trkpt lat="44.79259" lon="1.67014">
        <ele>206.214</ele>
        <time>2018-07-31T20:34:01Z</time>
      </trkpt>
      <trkpt lat="44.79217" lon="1.67029">
        <ele>207.208</ele>
        <time>2018-07-31T20:33:41Z</time>
      </trkpt>
      <trkpt lat="44.79206" lon="1.67027">
        <ele>206.994</ele>
        <time>2018-07-31T20:33:21Z</time>
      </trkpt>
      <trkpt lat="44.79199" lon="1.67026">
        <ele>206.939</ele>
        <time>2018-07-31T20:33:01Z</time>
      </trkpt>
      <trkpt lat="44.79192" lon="1.67025">
        <ele>207.263</ele>
        <time>2018-07-31T20:32:41Z</time>
      </trkpt>
      <trkpt lat="44.79192" lon="1.67025">
        <ele>207.352</ele>
        <time>2018-07-31T20:32:21Z</time>
      </trkpt>
      <trkpt lat="44.79171" lon="1.67027">
        <ele>211.244</ele>
        <time>2018-07-31T20:32:01Z</time>
      </trkpt>
      <trkpt lat="44.79165" lon="1.67024">
        <ele>211.883</ele>
        <time>2018-07-31T20:31:41Z</time>
      </trkpt>
      <trkpt lat="44.79154" lon="1.67017">
        <ele>213.336</ele>
        <time>2018-07-31T20:31:21Z</time>
      </trkpt>
      <trkpt lat="44.79147" lon="1.67024">
        <ele>215.729</ele>
        <time>2018-07-31T20:31:01Z</time>
      </trkpt>
      <trkpt lat="44.79146" lon="1.67024">
        <ele>215.919</ele>
        <time>2018-07-31T20:30:41Z</time>
      </trkpt>
      <trkpt lat="44.79145" lon="1.67026">
        <ele>216.509</ele>
        <time>2018-07-31T20:30:21Z</time>
      </trkpt>
      <trkpt lat="44.79138" lon="1.67032">
        <ele>219.619</ele>
        <time>2018-07-31T20:30:01Z</time>
      </trkpt>
      <trkpt lat="44.79129" lon="1.67045">
        <ele>228.108</ele>
        <time>2018-07-31T20:29:41Z</time>
      </trkpt>
      <trkpt lat="44.79121" lon="1.67049">
        <ele>232.083</ele>
        <time>2018-07-31T20:29:21Z</time>
      </trkpt>
      <trkpt lat="44.79118" lon="1.67049">
        <ele>233.278</ele>
        <time>2018-07-31T20:29:01Z</time>
      </trkpt>
      <trkpt lat="44.7911" lon="1.67049">
        <ele>236.762</ele>
        <time>2018-07-31T20:28:41Z</time>
      </trkpt>
      <trkpt lat="44.79102" lon="1.6704">
        <ele>240.391</ele>
        <time>2018-07-31T20:28:21Z</time>
      </trkpt>
      <trkpt lat="44.79099" lon="1.67035">
        <ele>241.063</ele>
        <time>2018-07-31T20:28:01Z</time>
      </trkpt>
      <trkpt lat="44.79097" lon="1.67031">
        <ele>241.912</ele>
        <time>2018-07-31T20:27:41Z</time>
      </trkpt>
      <trkpt lat="44.79095" lon="1.67029">
        <ele>242.365</ele>
        <time>2018-07-31T20:27:21Z</time>
      </trkpt>
      <trkpt lat="44.79094" lon="1.6702">
        <ele>242.478</ele>
        <time>2018-07-31T20:27:01Z</time>
      </trkpt>
      <trkpt lat="44.79092" lon="1.67008">
        <ele>242.772</ele>
        <time>2018-07-31T20:26:41Z</time>
      </trkpt>
      <trkpt lat="44.79093" lon="1.66982">
        <ele>237.213</ele>
        <time>2018-07-31T20:26:21Z</time>
      </trkpt>
      <trkpt lat="44.79095" lon="1.6697">
        <ele>232.514</ele>
        <time>2018-07-31T20:26:01Z</time>
      </trkpt>
      <trkpt lat="44.791" lon="1.66953">
        <ele>227.208</ele>
        <time>2018-07-31T20:25:41Z</time>
      </trkpt>
      <trkpt lat="44.79098" lon="1.66944">
        <ele>226.739</ele>
        <time>2018-07-31T20:25:21Z</time>
      </trkpt>
      <trkpt lat="44.79097" lon="1.66932">
        <ele>225.924</ele>
        <time>2018-07-31T20:25:01Z</time>
      </trkpt>
      <trkpt lat="44.7909" lon="1.66919">
        <ele>226.898</ele>
        <time>2018-07-31T20:24:41Z</time>
      </trkpt>
      <trkpt lat="44.79082" lon="1.66913">
        <ele>228.237</ele>
        <time>2018-07-31T20:24:21Z</time>
      </trkpt>
      <trkpt lat="44.79077" lon="1.66911">
        <ele>229.889</ele>
        <time>2018-07-31T20:24:01Z</time>
      </trkpt>
      <trkpt lat="44.79069" lon="1.66908">
        <ele>232.658</ele>
        <time>2018-07-31T20:23:41Z</time>
      </trkpt>
      <trkpt lat="44.79068" lon="1.66908">
        <ele>233.091</ele>
        <time>2018-07-31T20:23:21Z</time>
      </trkpt>
      <trkpt lat="44.79054" lon="1.66907">
        <ele>237.774</ele>
        <time>2018-07-31T20:23:01Z</time>
      </trkpt>
      <trkpt lat="44.79048" lon="1.66911">
        <ele>238.283</ele>
        <time>2018-07-31T20:22:41Z</time>
      </trkpt>
      <trkpt lat="44.79042" lon="1.66916">
        <ele>238.225</ele>
        <time>2018-07-31T20:22:21Z</time>
      </trkpt>
      <trkpt lat="44.79035" lon="1.66924">
        <ele>238.317</ele>
        <time>2018-07-31T20:22:01Z</time>
      </trkpt>
      <trkpt lat="44.7903" lon="1.66935">
        <ele>237.908</ele>
        <time>2018-07-31T20:21:41Z</time>
      </trkpt>
      <trkpt lat="44.79029" lon="1.66936">
        <ele>237.88</ele>
        <time>2018-07-31T20:21:21Z</time>
      </trkpt>
      <trkpt lat="44.79023" lon="1.66949">
        <ele>237.535</ele>
        <time>2018-07-31T20:21:01Z</time>
      </trkpt>
      <trkpt lat="44.79013" lon="1.66973">
        <ele>236.679</ele>
        <time>2018-07-31T20:20:41Z</time>
      </trkpt>
      <trkpt lat="44.79005" lon="1.67007">
        <ele>237.458</ele>
        <time>2018-07-31T20:20:21Z</time>
      </trkpt>
      <trkpt lat="44.78993" lon="1.67055">
        <ele>240.22</ele>
        <time>2018-07-31T20:20:01Z</time>
      </trkpt>
      <trkpt lat="44.78992" lon="1.67059">
        <ele>240.629</ele>
        <time>2018-07-31T20:19:41Z</time>
      </trkpt>
      <trkpt lat="44.78992" lon="1.6707">
        <ele>241.362</ele>
        <time>2018-07-31T20:19:21Z</time>
      </trkpt>
      <trkpt lat="44.78989" lon="1.67146">
        <ele>245.015</ele>
        <time>2018-07-31T20:19:01Z</time>
      </trkpt>
      <trkpt lat="44.7898" lon="1.67186">
        <ele>243.021</ele>
        <time>2018-07-31T20:18:41Z</time>
      </trkpt>
      <trkpt lat="44.78976" lon="1.67205">
        <ele>241.741</ele>
        <time>2018-07-31T20:18:21Z</time>
      </trkpt>
      <trkpt lat="44.78976" lon="1.67208">
        <ele>241.405</ele>
        <time>2018-07-31T20:18:01Z</time>
      </trkpt>
      <trkpt lat="44.78975" lon="1.67211">
        <ele>241.108</ele>
        <time>2018-07-31T20:17:41Z</time>
      </trkpt>
      <trkpt lat="44.78974" lon="1.67231">
        <ele>240.944</ele>
        <time>2018-07-31T20:17:21Z</time>
      </trkpt>
      <trkpt lat="44.78974" lon="1.67242">
        <ele>241.129</ele>
        <time>2018-07-31T20:17:01Z</time>
      </trkpt>
      <trkpt lat="44.78973" lon="1.67276">
        <ele>243.933</ele>
        <time>2018-07-31T20:16:41Z</time>
      </trkpt>
      <trkpt lat="44.7897" lon="1.67294">
        <ele>245.522</ele>
        <time>2018-07-31T20:16:21Z</time>
      </trkpt>
      <trkpt lat="44.7897" lon="1.673">
        <ele>246.034</ele>
        <time>2018-07-31T20:16:01Z</time>
      </trkpt>
      <trkpt lat="44.78966" lon="1.67314">
        <ele>247.143</ele>
        <time>2018-07-31T20:15:41Z</time>
      </trkpt>
      <trkpt lat="44.78956" lon="1.67316">
        <ele>248.396</ele>
        <time>2018-07-31T20:15:21Z</time>
      </trkpt>
      <trkpt lat="44.78943" lon="1.67316">
        <ele>250.499</ele>
        <time>2018-07-31T20:15:01Z</time>
      </trkpt>
      <trkpt lat="44.78932" lon="1.67328">
        <ele>256.914</ele>
        <time>2018-07-31T20:14:41Z</time>
      </trkpt>
      <trkpt lat="44.78928" lon="1.6734">
        <ele>258.654</ele>
        <time>2018-07-31T20:14:21Z</time>
      </trkpt>
      <trkpt lat="44.78927" lon="1.67355">
        <ele>257.909</ele>
        <time>2018-07-31T20:14:01Z</time>
      </trkpt>
      <trkpt lat="44.78924" lon="1.67393">
        <ele>256.508</ele>
        <time>2018-07-31T20:13:41Z</time>
      </trkpt>
      <trkpt lat="44.78921" lon="1.67415">
        <ele>255.863</ele>
        <time>2018-07-31T20:13:21Z</time>
      </trkpt>
      <trkpt lat="44.78917" lon="1.67425">
        <ele>256.838</ele>
        <time>2018-07-31T20:13:01Z</time>
      </trkpt>
      <trkpt lat="44.78912" lon="1.67431">
        <ele>258.552</ele>
        <time>2018-07-31T20:12:41Z</time>
      </trkpt>
      <trkpt lat="44.78907" lon="1.67419">
        <ele>260.051</ele>
        <time>2018-07-31T20:12:21Z</time>
      </trkpt>
      <trkpt lat="44.7891" lon="1.67401">
        <ele>260.773</ele>
        <time>2018-07-31T20:12:01Z</time>
      </trkpt>
      <trkpt lat="44.7891" lon="1.67395">
        <ele>261.392</ele>
        <time>2018-07-31T20:11:41Z</time>
      </trkpt>
      <trkpt lat="44.78906" lon="1.67392">
        <ele>262.965</ele>
        <time>2018-07-31T20:11:21Z</time>
      </trkpt>
      <trkpt lat="44.78899" lon="1.67394">
        <ele>264.538</ele>
        <time>2018-07-31T20:11:01Z</time>
      </trkpt>
      <trkpt lat="44.78889" lon="1.67405">
        <ele>266.878</ele>
        <time>2018-07-31T20:10:41Z</time>
      </trkpt>
      <trkpt lat="44.7888" lon="1.67402">
        <ele>268.433</ele>
        <time>2018-07-31T20:10:21Z</time>
      </trkpt>
      <trkpt lat="44.78885" lon="1.67384">
        <ele>269.326</ele>
        <time>2018-07-31T20:10:01Z</time>
      </trkpt>
      <trkpt lat="44.78903" lon="1.67348">
        <ele>269.008</ele>
        <time>2018-07-31T20:09:41Z</time>
      </trkpt>
      <trkpt lat="44.78905" lon="1.6734">
        <ele>268.949</ele>
        <time>2018-07-31T20:09:21Z</time>
      </trkpt>
      <trkpt lat="44.78908" lon="1.67322">
        <ele>269.674</ele>
        <time>2018-07-31T20:09:01Z</time>
      </trkpt>
      <trkpt lat="44.78909" lon="1.67309">
        <ele>270.138</ele>
        <time>2018-07-31T20:08:41Z</time>
      </trkpt>
      <trkpt lat="44.78905" lon="1.67305">
        <ele>271.717</ele>
        <time>2018-07-31T20:08:21Z</time>
      </trkpt>
      <trkpt lat="44.78898" lon="1.67307">
        <ele>273.989</ele>
        <time>2018-07-31T20:08:01Z</time>
      </trkpt>
      <trkpt lat="44.78892" lon="1.6732">
        <ele>274.828</ele>
        <time>2018-07-31T20:07:41Z</time>
      </trkpt>
      <trkpt lat="44.78889" lon="1.67326">
        <ele>275.611</ele>
        <time>2018-07-31T20:07:21Z</time>
      </trkpt>
      <trkpt lat="44.78883" lon="1.67336">
        <ele>274.954</ele>
        <time>2018-07-31T20:07:01Z</time>
      </trkpt>
      <trkpt lat="44.78874" lon="1.67344">
        <ele>274.687</ele>
        <time>2018-07-31T20:06:41Z</time>
      </trkpt>
      <trkpt lat="44.78866" lon="1.67346">
        <ele>274.842</ele>
        <time>2018-07-31T20:06:21Z</time>
      </trkpt>
      <trkpt lat="44.78857" lon="1.67346">
        <ele>275.426</ele>
        <time>2018-07-31T20:06:01Z</time>
      </trkpt>
      <trkpt lat="44.78846" lon="1.67346">
        <ele>276.108</ele>
        <time>2018-07-31T20:05:41Z</time>
      </trkpt>
      <trkpt lat="44.78834" lon="1.67345">
        <ele>276.98</ele>
        <time>2018-07-31T20:05:21Z</time>
      </trkpt>
      <trkpt lat="44.78825" lon="1.67345">
        <ele>278.115</ele>
        <time>2018-07-31T20:05:01Z</time>
      </trkpt>
      <trkpt lat="44.78816" lon="1.67346">
        <ele>279.279</ele>
        <time>2018-07-31T20:04:41Z</time>
      </trkpt>
      <trkpt lat="44.78808" lon="1.67348">
        <ele>280.218</ele>
        <time>2018-07-31T20:04:21Z</time>
      </trkpt>
      <trkpt lat="44.78802" lon="1.67352">
        <ele>280.61</ele>
        <time>2018-07-31T20:04:01Z</time>
      </trkpt>
      <trkpt lat="44.78796" lon="1.67358">
        <ele>280.819</ele>
        <time>2018-07-31T20:03:41Z</time>
      </trkpt>
      <trkpt lat="44.78792" lon="1.67363">
        <ele>281.012</ele>
        <time>2018-07-31T20:03:21Z</time>
      </trkpt>
      <trkpt lat="44.78788" lon="1.6737">
        <ele>281.385</ele>
        <time>2018-07-31T20:03:01Z</time>
      </trkpt>
      <trkpt lat="44.78783" lon="1.67384">
        <ele>281.673</ele>
        <time>2018-07-31T20:02:41Z</time>
      </trkpt>
      <trkpt lat="44.78782" lon="1.67387">
        <ele>281.785</ele>
        <time>2018-07-31T20:02:21Z</time>
      </trkpt>
      <trkpt lat="44.78781" lon="1.67399">
        <ele>282.113</ele>
        <time>2018-07-31T20:02:01Z</time>
      </trkpt>
      <trkpt lat="44.78781" lon="1.67411">
        <ele>282.408</ele>
        <time>2018-07-31T20:01:41Z</time>
      </trkpt>
      <trkpt lat="44.78781" lon="1.6743">
        <ele>282.549</ele>
        <time>2018-07-31T20:01:21Z</time>
      </trkpt>
      <trkpt lat="44.78781" lon="1.67475">
        <ele>284.844</ele>
        <time>2018-07-31T20:01:01Z</time>
      </trkpt>
      <trkpt lat="44.78779" lon="1.67486">
        <ele>285.868</ele>
        <time>2018-07-31T20:00:41Z</time>
      </trkpt>
      <trkpt lat="44.78774" lon="1.67519">
        <ele>288.047</ele>
        <time>2018-07-31T20:00:21Z</time>
      </trkpt>
      <trkpt lat="44.78772" lon="1.6753">
        <ele>288.469</ele>
        <time>2018-07-31T20:00:01Z</time>
      </trkpt>
      <trkpt lat="44.78762" lon="1.67558">
        <ele>289.838</ele>
        <time>2018-07-31T19:59:41Z</time>
      </trkpt>
      <trkpt lat="44.78742" lon="1.67603">
        <ele>292.231</ele>
        <time>2018-07-31T19:59:21Z</time>
      </trkpt>
      <trkpt lat="44.78734" lon="1.6762">
        <ele>293.544</ele>
        <time>2018-07-31T19:59:01Z</time>
      </trkpt>
      <trkpt lat="44.78718" lon="1.67662">
        <ele>296.017</ele>
        <time>2018-07-31T19:58:41Z</time>
      </trkpt>
      <trkpt lat="44.78717" lon="1.67664">
        <ele>296.187</ele>
        <time>2018-07-31T19:58:21Z</time>
      </trkpt>
      <trkpt lat="44.78717" lon="1.67679">
        <ele>296.515</ele>
        <time>2018-07-31T19:58:01Z</time>
      </trkpt>
      <trkpt lat="44.78717" lon="1.67698">
        <ele>297.008</ele>
        <time>2018-07-31T19:57:41Z</time>
      </trkpt>
      <trkpt lat="44.78717" lon="1.67712">
        <ele>297.093</ele>
        <time>2018-07-31T19:57:21Z</time>
      </trkpt>
      <trkpt lat="44.78717" lon="1.67729">
        <ele>297.028</ele>
        <time>2018-07-31T19:57:01Z</time>
      </trkpt>
      <trkpt lat="44.78717" lon="1.67747">
        <ele>297.272</ele>
        <time>2018-07-31T19:56:41Z</time>
      </trkpt>
      <trkpt lat="44.78718" lon="1.67759">
        <ele>297.731</ele>
        <time>2018-07-31T19:56:21Z</time>
      </trkpt>
      <trkpt lat="44.78721" lon="1.67771">
        <ele>298.543</ele>
        <time>2018-07-31T19:56:01Z</time>
      </trkpt>
      <trkpt lat="44.78723" lon="1.67781">
        <ele>299.252</ele>
        <time>2018-07-31T19:55:41Z</time>
      </trkpt>
      <trkpt lat="44.78726" lon="1.67791">
        <ele>299.965</ele>
        <time>2018-07-31T19:55:21Z</time>
      </trkpt>
      <trkpt lat="44.78729" lon="1.67801">
        <ele>300.518</ele>
        <time>2018-07-31T19:55:01Z</time>
      </trkpt>
      <trkpt lat="44.78731" lon="1.67812">
        <ele>300.977</ele>
        <time>2018-07-31T19:54:41Z</time>
      </trkpt>
      <trkpt lat="44.78731" lon="1.67823">
        <ele>301.361</ele>
        <time>2018-07-31T19:54:21Z</time>
      </trkpt>
      <trkpt lat="44.7873" lon="1.67833">
        <ele>301.727</ele>
        <time>2018-07-31T19:54:01Z</time>
      </trkpt>
      <trkpt lat="44.78725" lon="1.67852">
        <ele>302.608</ele>
        <time>2018-07-31T19:53:41Z</time>
      </trkpt>
      <trkpt lat="44.78721" lon="1.67861">
        <ele>303.089</ele>
        <time>2018-07-31T19:53:21Z</time>
      </trkpt>
      <trkpt lat="44.78699" lon="1.67912">
        <ele>306.024</ele>
        <time>2018-07-31T19:53:01Z</time>
      </trkpt>
      <trkpt lat="44.78688" lon="1.67949">
        <ele>306.958</ele>
        <time>2018-07-31T19:52:41Z</time>
      </trkpt>
      <trkpt lat="44.78687" lon="1.67951">
        <ele>307.077</ele>
        <time>2018-07-31T19:52:21Z</time>
      </trkpt>
      <trkpt lat="44.78685" lon="1.67961">
        <ele>307.399</ele>
        <time>2018-07-31T19:52:01Z</time>
      </trkpt>
      <trkpt lat="44.78684" lon="1.67979">
        <ele>307.998</ele>
        <time>2018-07-31T19:51:41Z</time>
      </trkpt>
      <trkpt lat="44.78683" lon="1.67991">
        <ele>308.341</ele>
        <time>2018-07-31T19:51:21Z</time>
      </trkpt>
      <trkpt lat="44.78683" lon="1.68004">
        <ele>308.814</ele>
        <time>2018-07-31T19:51:01Z</time>
      </trkpt>
      <trkpt lat="44.78684" lon="1.68017">
        <ele>309.788</ele>
        <time>2018-07-31T19:50:41Z</time>
      </trkpt>
      <trkpt lat="44.78685" lon="1.68025">
        <ele>310.224</ele>
        <time>2018-07-31T19:50:21Z</time>
      </trkpt>
      <trkpt lat="44.78686" lon="1.68031">
        <ele>310.526</ele>
        <time>2018-07-31T19:50:01Z</time>
      </trkpt>
      <trkpt lat="44.78689" lon="1.68043">
        <ele>311.208</ele>
        <time>2018-07-31T19:49:41Z</time>
      </trkpt>
      <trkpt lat="44.78691" lon="1.68051">
        <ele>311.73</ele>
        <time>2018-07-31T19:49:21Z</time>
      </trkpt>
      <trkpt lat="44.78691" lon="1.68057">
        <ele>312.075</ele>
        <time>2018-07-31T19:49:01Z</time>
      </trkpt>
      <trkpt lat="44.78692" lon="1.68059">
        <ele>312.199</ele>
        <time>2018-07-31T19:48:41Z</time>
      </trkpt>
      <trkpt lat="44.78691" lon="1.68066">
        <ele>312.438</ele>
        <time>2018-07-31T19:48:21Z</time>
      </trkpt>
      <trkpt lat="44.78691" lon="1.68073">
        <ele>312.62</ele>
        <time>2018-07-31T19:48:01Z</time>
      </trkpt>
      <trkpt lat="44.7869" lon="1.68082">
        <ele>313.079</ele>
        <time>2018-07-31T19:47:41Z</time>
      </trkpt>
      <trkpt lat="44.78688" lon="1.6809">
        <ele>313.092</ele>
        <time>2018-07-31T19:47:21Z</time>
      </trkpt>
      <trkpt lat="44.78684" lon="1.68105">
        <ele>313.045</ele>
        <time>2018-07-31T19:47:01Z</time>
      </trkpt>
      <trkpt lat="44.78677" lon="1.68133">
        <ele>312.579</ele>
        <time>2018-07-31T19:46:41Z</time>
      </trkpt>
      <trkpt lat="44.78669" lon="1.68165">
        <ele>312.105</ele>
        <time>2018-07-31T19:46:21Z</time>
      </trkpt>
      <trkpt lat="44.78667" lon="1.68178">
        <ele>312.425</ele>
        <time>2018-07-31T19:46:01Z</time>
      </trkpt>
      <trkpt lat="44.78666" lon="1.68189">
        <ele>312.808</ele>
        <time>2018-07-31T19:45:41Z</time>
      </trkpt>
      <trkpt lat="44.78665" lon="1.68197">
        <ele>313.039</ele>
        <time>2018-07-31T19:45:21Z</time>
      </trkpt>
      <trkpt lat="44.78664" lon="1.68208">
        <ele>313.024</ele>
        <time>2018-07-31T19:45:01Z</time>
      </trkpt>
      <trkpt lat="44.78663" lon="1.68265">
        <ele>314.288</ele>
        <time>2018-07-31T19:44:41Z</time>
      </trkpt>
      <trkpt lat="44.78663" lon="1.68276">
        <ele>315.037</ele>
        <time>2018-07-31T19:44:21Z</time>
      </trkpt>
      <trkpt lat="44.78663" lon="1.68291">
        <ele>315.649</ele>
        <time>2018-07-31T19:44:01Z</time>
      </trkpt>
      <trkpt lat="44.78661" lon="1.68313">
        <ele>316.398</ele>
        <time>2018-07-31T19:43:41Z</time>
      </trkpt>
      <trkpt lat="44.78659" lon="1.6832">
        <ele>316.491</ele>
        <time>2018-07-31T19:43:21Z</time>
      </trkpt>
      <trkpt lat="44.78654" lon="1.68346">
        <ele>317.214</ele>
        <time>2018-07-31T19:43:01Z</time>
      </trkpt>
      <trkpt lat="44.78653" lon="1.68349">
        <ele>317.313</ele>
        <time>2018-07-31T19:42:41Z</time>
      </trkpt>
      <trkpt lat="44.78644" lon="1.68394">
        <ele>317.643</ele>
        <time>2018-07-31T19:42:21Z</time>
      </trkpt>
      <trkpt lat="44.78639" lon="1.68413">
        <ele>318.807</ele>
        <time>2018-07-31T19:42:01Z</time>
      </trkpt>
      <trkpt lat="44.78638" lon="1.6842">
        <ele>318.908</ele>
        <time>2018-07-31T19:41:41Z</time>
      </trkpt>
      <trkpt lat="44.78633" lon="1.68433">
        <ele>318.323</ele>
        <time>2018-07-31T19:41:21Z</time>
      </trkpt>
      <trkpt lat="44.78626" lon="1.68448">
        <ele>318.038</ele>
        <time>2018-07-31T19:41:01Z</time>
      </trkpt>
      <trkpt lat="44.78615" lon="1.68466">
        <ele>318.052</ele>
        <time>2018-07-31T19:40:41Z</time>
      </trkpt>
      <trkpt lat="44.78609" lon="1.68479">
        <ele>318.371</ele>
        <time>2018-07-31T19:40:21Z</time>
      </trkpt>
      <trkpt lat="44.78606" lon="1.68492">
        <ele>318.963</ele>
        <time>2018-07-31T19:40:01Z</time>
      </trkpt>
      <trkpt lat="44.78602" lon="1.68504">
        <ele>319.312</ele>
        <time>2018-07-31T19:39:41Z</time>
      </trkpt>
      <trkpt lat="44.78598" lon="1.68511">
        <ele>319.585</ele>
        <time>2018-07-31T19:39:21Z</time>
      </trkpt>
      <trkpt lat="44.78597" lon="1.68514">
        <ele>319.578</ele>
        <time>2018-07-31T19:39:01Z</time>
      </trkpt>
      <trkpt lat="44.78588" lon="1.68528">
        <ele>319.863</ele>
        <time>2018-07-31T19:38:41Z</time>
      </trkpt>
      <trkpt lat="44.78576" lon="1.68538">
        <ele>320.444</ele>
        <time>2018-07-31T19:38:21Z</time>
      </trkpt>
      <trkpt lat="44.78568" lon="1.68546">
        <ele>320.818</ele>
        <time>2018-07-31T19:38:01Z</time>
      </trkpt>
      <trkpt lat="44.78551" lon="1.68563">
        <ele>320.908</ele>
        <time>2018-07-31T19:37:41Z</time>
      </trkpt>
      <trkpt lat="44.7853" lon="1.68586">
        <ele>319.998</ele>
        <time>2018-07-31T19:37:21Z</time>
      </trkpt>
      <trkpt lat="44.78515" lon="1.68602">
        <ele>319.653</ele>
        <time>2018-07-31T19:37:01Z</time>
      </trkpt>
      <trkpt lat="44.78498" lon="1.68615">
        <ele>320.117</ele>
        <time>2018-07-31T19:36:41Z</time>
      </trkpt>
      <trkpt lat="44.78491" lon="1.68623">
        <ele>320.226</ele>
        <time>2018-07-31T19:36:21Z</time>
      </trkpt>
      <trkpt lat="44.78491" lon="1.68623">
        <ele>320.228</ele>
        <time>2018-07-31T19:36:01Z</time>
      </trkpt>
      <trkpt lat="44.78484" lon="1.68639">
        <ele>320.037</ele>
        <time>2018-07-31T19:35:41Z</time>
      </trkpt>
      <trkpt lat="44.78477" lon="1.68653">
        <ele>320.02</ele>
        <time>2018-07-31T19:35:21Z</time>
      </trkpt>
      <trkpt lat="44.78473" lon="1.68659">
        <ele>320.063</ele>
        <time>2018-07-31T19:35:01Z</time>
      </trkpt>
      <trkpt lat="44.78467" lon="1.68667">
        <ele>319.825</ele>
        <time>2018-07-31T19:34:41Z</time>
      </trkpt>
      <trkpt lat="44.7846" lon="1.68676">
        <ele>319.726</ele>
        <time>2018-07-31T19:34:21Z</time>
      </trkpt>
      <trkpt lat="44.78451" lon="1.68682">
        <ele>319.708</ele>
        <time>2018-07-31T19:34:01Z</time>
      </trkpt>
      <trkpt lat="44.78441" lon="1.68681">
        <ele>319.408</ele>
        <time>2018-07-31T19:33:41Z</time>
      </trkpt>
      <trkpt lat="44.78435" lon="1.68678">
        <ele>319.114</ele>
        <time>2018-07-31T19:33:21Z</time>
      </trkpt>
      <trkpt lat="44.7843" lon="1.68676">
        <ele>318.899</ele>
        <time>2018-07-31T19:33:01Z</time>
      </trkpt>
      <trkpt lat="44.78429" lon="1.68675">
        <ele>318.813</ele>
        <time>2018-07-31T19:32:41Z</time>
      </trkpt>
      <trkpt lat="44.78419" lon="1.68675">
        <ele>318.492</ele>
        <time>2018-07-31T19:32:21Z</time>
      </trkpt>
      <trkpt lat="44.7841" lon="1.68677">
        <ele>317.924</ele>
        <time>2018-07-31T19:32:01Z</time>
      </trkpt>
      <trkpt lat="44.78406" lon="1.68679">
        <ele>317.753</ele>
        <time>2018-07-31T19:31:41Z</time>
      </trkpt>
      <trkpt lat="44.78404" lon="1.6868">
        <ele>317.616</ele>
        <time>2018-07-31T19:31:21Z</time>
      </trkpt>
      <trkpt lat="44.78399" lon="1.68683">
        <ele>317.349</ele>
        <time>2018-07-31T19:31:01Z</time>
      </trkpt>
      <trkpt lat="44.78388" lon="1.6869">
        <ele>316.748</ele>
        <time>2018-07-31T19:30:41Z</time>
      </trkpt>
      <trkpt lat="44.78377" lon="1.68691">
        <ele>315.561</ele>
        <time>2018-07-31T19:30:21Z</time>
      </trkpt>
      <trkpt lat="44.78365" lon="1.6869">
        <ele>314.217</ele>
        <time>2018-07-31T19:30:01Z</time>
      </trkpt>
      <trkpt lat="44.78358" lon="1.68689">
        <ele>313.608</ele>
        <time>2018-07-31T19:29:41Z</time>
      </trkpt>
      <trkpt lat="44.78354" lon="1.68689">
        <ele>313.376</ele>
        <time>2018-07-31T19:29:21Z</time>
      </trkpt>
      <trkpt lat="44.78346" lon="1.68693">
        <ele>312.841</ele>
        <time>2018-07-31T19:29:01Z</time>
      </trkpt>
      <trkpt lat="44.78341" lon="1.68697">
        <ele>312.755</ele>
        <time>2018-07-31T19:28:41Z</time>
      </trkpt>
      <trkpt lat="44.78337" lon="1.687">
        <ele>312.594</ele>
        <time>2018-07-31T19:28:21Z</time>
      </trkpt>
      <trkpt lat="44.7834" lon="1.68711">
        <ele>313.056</ele>
        <time>2018-07-31T19:28:01Z</time>
      </trkpt>
      <trkpt lat="44.78342" lon="1.68728">
        <ele>313.565</ele>
        <time>2018-07-31T19:27:41Z</time>
      </trkpt>
      <trkpt lat="44.78344" lon="1.68742">
        <ele>313.538</ele>
        <time>2018-07-31T19:27:21Z</time>
      </trkpt>
      <trkpt lat="44.7835" lon="1.68764">
        <ele>312.971</ele>
        <time>2018-07-31T19:27:01Z</time>
      </trkpt>
      <trkpt lat="44.7835" lon="1.68765">
        <ele>312.974</ele>
        <time>2018-07-31T19:26:41Z</time>
      </trkpt>
      <trkpt lat="44.78362" lon="1.68794">
        <ele>312.456</ele>
        <time>2018-07-31T19:26:21Z</time>
      </trkpt>
      <trkpt lat="44.78366" lon="1.68809">
        <ele>312.521</ele>
        <time>2018-07-31T19:26:01Z</time>
      </trkpt>
      <trkpt lat="44.78367" lon="1.68815">
        <ele>312.708</ele>
        <time>2018-07-31T19:25:41Z</time>
      </trkpt>
      <trkpt lat="44.78366" lon="1.68821">
        <ele>312.869</ele>
        <time>2018-07-31T19:25:21Z</time>
      </trkpt>
      <trkpt lat="44.78366" lon="1.68821">
        <ele>312.854</ele>
        <time>2018-07-31T19:25:01Z</time>
      </trkpt>
      <trkpt lat="44.78363" lon="1.68831">
        <ele>313.038</ele>
        <time>2018-07-31T19:24:41Z</time>
      </trkpt>
      <trkpt lat="44.78359" lon="1.6884">
        <ele>312.997</ele>
        <time>2018-07-31T19:24:21Z</time>
      </trkpt>
      <trkpt lat="44.78353" lon="1.68861">
        <ele>312.799</ele>
        <time>2018-07-31T19:24:01Z</time>
      </trkpt>
      <trkpt lat="44.78352" lon="1.68867">
        <ele>312.678</ele>
        <time>2018-07-31T19:23:41Z</time>
      </trkpt>
      <trkpt lat="44.78349" lon="1.68871">
        <ele>312.431</ele>
        <time>2018-07-31T19:23:21Z</time>
      </trkpt>
      <trkpt lat="44.78347" lon="1.68875">
        <ele>312.214</ele>
        <time>2018-07-31T19:23:01Z</time>
      </trkpt>
      <trkpt lat="44.78339" lon="1.68883">
        <ele>311.641</ele>
        <time>2018-07-31T19:22:41Z</time>
      </trkpt>
      <trkpt lat="44.78337" lon="1.68885">
        <ele>311.481</ele>
        <time>2018-07-31T19:22:21Z</time>
      </trkpt>
      <trkpt lat="44.78331" lon="1.68888">
        <ele>310.809</ele>
        <time>2018-07-31T19:22:01Z</time>
      </trkpt>
      <trkpt lat="44.78322" lon="1.68896">
        <ele>310.108</ele>
        <time>2018-07-31T19:21:41Z</time>
      </trkpt>
      <trkpt lat="44.78313" lon="1.68905">
        <ele>309.186</ele>
        <time>2018-07-31T19:21:21Z</time>
      </trkpt>
      <trkpt lat="44.78288" lon="1.68924">
        <ele>306.711</ele>
        <time>2018-07-31T19:21:01Z</time>
      </trkpt>
      <trkpt lat="44.78279" lon="1.68928">
        <ele>306.085</ele>
        <time>2018-07-31T19:20:41Z</time>
      </trkpt>
      <trkpt lat="44.78271" lon="1.68932">
        <ele>305.924</ele>
        <time>2018-07-31T19:20:21Z</time>
      </trkpt>
      <trkpt lat="44.78264" lon="1.68937">
        <ele>305.646</ele>
        <time>2018-07-31T19:20:01Z</time>
      </trkpt>
      <trkpt lat="44.78259" lon="1.68941">
        <ele>305.495</ele>
        <time>2018-07-31T19:19:41Z</time>
      </trkpt>
      <trkpt lat="44.78256" lon="1.68947">
        <ele>305.248</ele>
        <time>2018-07-31T19:19:21Z</time>
      </trkpt>
      <trkpt lat="44.78255" lon="1.6895">
        <ele>305.291</ele>
        <time>2018-07-31T19:19:01Z</time>
      </trkpt>
      <trkpt lat="44.78251" lon="1.68957">
        <ele>305.188</ele>
        <time>2018-07-31T19:18:41Z</time>
      </trkpt>
      <trkpt lat="44.78245" lon="1.68966">
        <ele>304.624</ele>
        <time>2018-07-31T19:18:21Z</time>
      </trkpt>
      <trkpt lat="44.78241" lon="1.68971">
        <ele>304.426</ele>
        <time>2018-07-31T19:18:01Z</time>
      </trkpt>
      <trkpt lat="44.78235" lon="1.68978">
        <ele>303.908</ele>
        <time>2018-07-31T19:17:41Z</time>
      </trkpt>
      <trkpt lat="44.78228" lon="1.68982">
        <ele>303.42</ele>
        <time>2018-07-31T19:17:21Z</time>
      </trkpt>
      <trkpt lat="44.78226" lon="1.68982">
        <ele>303.395</ele>
        <time>2018-07-31T19:17:01Z</time>
      </trkpt>
      <trkpt lat="44.78217" lon="1.68983">
        <ele>302.659</ele>
        <time>2018-07-31T19:16:41Z</time>
      </trkpt>
      <trkpt lat="44.78211" lon="1.68984">
        <ele>302.218</ele>
        <time>2018-07-31T19:16:21Z</time>
      </trkpt>
      <trkpt lat="44.78206" lon="1.68987">
        <ele>301.82</ele>
        <time>2018-07-31T19:16:01Z</time>
      </trkpt>
      <trkpt lat="44.78201" lon="1.68992">
        <ele>301.489</ele>
        <time>2018-07-31T19:15:41Z</time>
      </trkpt>
      <trkpt lat="44.78198" lon="1.68996">
        <ele>301.382</ele>
        <time>2018-07-31T19:15:21Z</time>
      </trkpt>
      <trkpt lat="44.78196" lon="1.68999">
        <ele>301.115</ele>
        <time>2018-07-31T19:15:01Z</time>
      </trkpt>
      <trkpt lat="44.78193" lon="1.69007">
        <ele>300.936</ele>
        <time>2018-07-31T19:14:41Z</time>
      </trkpt>
      <trkpt lat="44.7819" lon="1.69021">
        <ele>300.817</ele>
        <time>2018-07-31T19:14:21Z</time>
      </trkpt>
      <trkpt lat="44.78187" lon="1.69045">
        <ele>300.718</ele>
        <time>2018-07-31T19:14:01Z</time>
      </trkpt>
      <trkpt lat="44.78184" lon="1.6907">
        <ele>300.108</ele>
        <time>2018-07-31T19:13:41Z</time>
      </trkpt>
      <trkpt lat="44.78183" lon="1.69077">
        <ele>299.875</ele>
        <time>2018-07-31T19:13:21Z</time>
      </trkpt>
      <trkpt lat="44.7818" lon="1.69089">
        <ele>299.67</ele>
        <time>2018-07-31T19:13:01Z</time>
      </trkpt>
      <trkpt lat="44.7818" lon="1.69096">
        <ele>299.724</ele>
        <time>2018-07-31T19:12:41Z</time>
      </trkpt>
      <trkpt lat="44.7818" lon="1.69106">
        <ele>299.953</ele>
        <time>2018-07-31T19:12:21Z</time>
      </trkpt>
      <trkpt lat="44.78181" lon="1.69116">
        <ele>300.115</ele>
        <time>2018-07-31T19:12:01Z</time>
      </trkpt>
      <trkpt lat="44.78183" lon="1.69146">
        <ele>300.624</ele>
        <time>2018-07-31T19:11:41Z</time>
      </trkpt>
      <trkpt lat="44.78186" lon="1.69173">
        <ele>300.957</ele>
        <time>2018-07-31T19:11:21Z</time>
      </trkpt>
      <trkpt lat="44.78187" lon="1.6919">
        <ele>301.65</ele>
        <time>2018-07-31T19:11:01Z</time>
      </trkpt>
      <trkpt lat="44.78189" lon="1.69213">
        <ele>302.561</ele>
        <time>2018-07-31T19:10:41Z</time>
      </trkpt>
      <trkpt lat="44.78188" lon="1.69227">
        <ele>302.921</ele>
        <time>2018-07-31T19:10:21Z</time>
      </trkpt>
      <trkpt lat="44.78188" lon="1.69233">
        <ele>303.113</ele>
        <time>2018-07-31T19:10:01Z</time>
      </trkpt>
      <trkpt lat="44.78187" lon="1.69247">
        <ele>303.608</ele>
        <time>2018-07-31T19:09:41Z</time>
      </trkpt>
      <trkpt lat="44.78178" lon="1.69279">
        <ele>304.488</ele>
        <time>2018-07-31T19:09:21Z</time>
      </trkpt>
      <trkpt lat="44.78173" lon="1.69289">
        <ele>304.293</ele>
        <time>2018-07-31T19:09:01Z</time>
      </trkpt>
      <trkpt lat="44.78165" lon="1.69302">
        <ele>304.037</ele>
        <time>2018-07-31T19:08:41Z</time>
      </trkpt>
      <trkpt lat="44.78159" lon="1.69315">
        <ele>304.096</ele>
        <time>2018-07-31T19:08:21Z</time>
      </trkpt>
      <trkpt lat="44.78145" lon="1.6934">
        <ele>303.838</ele>
        <time>2018-07-31T19:08:01Z</time>
      </trkpt>
      <trkpt lat="44.78142" lon="1.69345">
        <ele>303.617</ele>
        <time>2018-07-31T19:07:41Z</time>
      </trkpt>
      <trkpt lat="44.78129" lon="1.69373">
        <ele>303.17</ele>
        <time>2018-07-31T19:07:21Z</time>
      </trkpt>
      <trkpt lat="44.78122" lon="1.69387">
        <ele>303.273</ele>
        <time>2018-07-31T19:07:01Z</time>
      </trkpt>
      <trkpt lat="44.781" lon="1.69424">
        <ele>303.118</ele>
        <time>2018-07-31T19:06:41Z</time>
      </trkpt>
      <trkpt lat="44.78097" lon="1.69429">
        <ele>303.198</ele>
        <time>2018-07-31T19:06:21Z</time>
      </trkpt>
      <trkpt lat="44.78092" lon="1.69446">
        <ele>302.617</ele>
        <time>2018-07-31T19:06:01Z</time>
      </trkpt>
      <trkpt lat="44.78092" lon="1.69447">
        <ele>302.608</ele>
        <time>2018-07-31T19:05:41Z</time>
      </trkpt>
      <trkpt lat="44.78092" lon="1.69455">
        <ele>302.323</ele>
        <time>2018-07-31T19:05:21Z</time>
      </trkpt>
      <trkpt lat="44.78092" lon="1.69462">
        <ele>302.198</ele>
        <time>2018-07-31T19:05:01Z</time>
      </trkpt>
      <trkpt lat="44.78092" lon="1.69471">
        <ele>301.722</ele>
        <time>2018-07-31T19:04:41Z</time>
      </trkpt>
      <trkpt lat="44.78091" lon="1.6948">
        <ele>301.481</ele>
        <time>2018-07-31T19:04:21Z</time>
      </trkpt>
      <trkpt lat="44.78091" lon="1.69482">
        <ele>301.473</ele>
        <time>2018-07-31T19:04:01Z</time>
      </trkpt>
      <trkpt lat="44.78091" lon="1.69489">
        <ele>301.142</ele>
        <time>2018-07-31T19:03:41Z</time>
      </trkpt>
      <trkpt lat="44.78089" lon="1.69498">
        <ele>300.995</ele>
        <time>2018-07-31T19:03:21Z</time>
      </trkpt>
      <trkpt lat="44.78087" lon="1.69509">
        <ele>300.688</ele>
        <time>2018-07-31T19:03:01Z</time>
      </trkpt>
      <trkpt lat="44.78083" lon="1.6952">
        <ele>300.336</ele>
        <time>2018-07-31T19:02:41Z</time>
      </trkpt>
      <trkpt lat="44.78081" lon="1.69525">
        <ele>300.217</ele>
        <time>2018-07-31T19:02:21Z</time>
      </trkpt>
      <trkpt lat="44.78077" lon="1.69533">
        <ele>300.118</ele>
        <time>2018-07-31T19:02:01Z</time>
      </trkpt>
      <trkpt lat="44.78055" lon="1.69581">
        <ele>300.008</ele>
        <time>2018-07-31T19:01:41Z</time>
      </trkpt>
      <trkpt lat="44.78033" lon="1.69626">
        <ele>300.855</ele>
        <time>2018-07-31T19:01:21Z</time>
      </trkpt>
      <trkpt lat="44.78011" lon="1.69671">
        <ele>300.91</ele>
        <time>2018-07-31T19:01:01Z</time>
      </trkpt>
      <trkpt lat="44.77995" lon="1.69705">
        <ele>301.064</ele>
        <time>2018-07-31T19:00:41Z</time>
      </trkpt>
      <trkpt lat="44.77974" lon="1.69746">
        <ele>301.813</ele>
        <time>2018-07-31T19:00:21Z</time>
      </trkpt>
      <trkpt lat="44.7797" lon="1.69756">
        <ele>301.925</ele>
        <time>2018-07-31T19:00:01Z</time>
      </trkpt>
      <trkpt lat="44.77967" lon="1.69766">
        <ele>301.864</ele>
        <time>2018-07-31T18:59:41Z</time>
      </trkpt>
      <trkpt lat="44.77966" lon="1.69771">
        <ele>301.877</ele>
        <time>2018-07-31T18:59:21Z</time>
      </trkpt>
      <trkpt lat="44.77963" lon="1.69781">
        <ele>301.87</ele>
        <time>2018-07-31T18:59:01Z</time>
      </trkpt>
      <trkpt lat="44.77961" lon="1.69793">
        <ele>302.158</ele>
        <time>2018-07-31T18:58:41Z</time>
      </trkpt>
      <trkpt lat="44.77959" lon="1.69804">
        <ele>302.452</ele>
        <time>2018-07-31T18:58:21Z</time>
      </trkpt>
      <trkpt lat="44.77956" lon="1.69813">
        <ele>302.417</ele>
        <time>2018-07-31T18:58:01Z</time>
      </trkpt>
      <trkpt lat="44.77953" lon="1.69826">
        <ele>302.308</ele>
        <time>2018-07-31T18:57:41Z</time>
      </trkpt>
      <trkpt lat="44.77948" lon="1.69842">
        <ele>302.447</ele>
        <time>2018-07-31T18:57:21Z</time>
      </trkpt>
      <trkpt lat="44.77926" lon="1.69902">
        <ele>302.892</ele>
        <time>2018-07-31T18:57:01Z</time>
      </trkpt>
      <trkpt lat="44.77908" lon="1.69949">
        <ele>301.936</ele>
        <time>2018-07-31T18:56:41Z</time>
      </trkpt>
      <trkpt lat="44.77904" lon="1.69956">
        <ele>302.055</ele>
        <time>2018-07-31T18:56:21Z</time>
      </trkpt>
      <trkpt lat="44.77903" lon="1.69958">
        <ele>302.067</ele>
        <time>2018-07-31T18:56:01Z</time>
      </trkpt>
      <trkpt lat="44.77902" lon="1.6996">
        <ele>302.046</ele>
        <time>2018-07-31T18:55:41Z</time>
      </trkpt>
      <trkpt lat="44.77899" lon="1.69965">
        <ele>302.279</ele>
        <time>2018-07-31T18:55:21Z</time>
      </trkpt>
      <trkpt lat="44.77892" lon="1.69971">
        <ele>302.732</ele>
        <time>2018-07-31T18:55:01Z</time>
      </trkpt>
      <trkpt lat="44.7789" lon="1.69974">
        <ele>302.994</ele>
        <time>2018-07-31T18:54:41Z</time>
      </trkpt>
      <trkpt lat="44.77879" lon="1.69984">
        <ele>303.557</ele>
        <time>2018-07-31T18:54:21Z</time>
      </trkpt>
      <trkpt lat="44.77861" lon="1.70008">
        <ele>305.022</ele>
        <time>2018-07-31T18:54:01Z</time>
      </trkpt>
      <trkpt lat="44.77855" lon="1.70023">
        <ele>304.708</ele>
        <time>2018-07-31T18:53:41Z</time>
      </trkpt>
      <trkpt lat="44.77853" lon="1.70035">
        <ele>304.731</ele>
        <time>2018-07-31T18:53:21Z</time>
      </trkpt>
      <trkpt lat="44.77854" lon="1.70045">
        <ele>304.746</ele>
        <time>2018-07-31T18:53:01Z</time>
      </trkpt>
      <trkpt lat="44.77854" lon="1.70055">
        <ele>304.73</ele>
        <time>2018-07-31T18:52:41Z</time>
      </trkpt>
      <trkpt lat="44.77853" lon="1.70065">
        <ele>305.149</ele>
        <time>2018-07-31T18:52:21Z</time>
      </trkpt>
      <trkpt lat="44.77861" lon="1.70102">
        <ele>306.611</ele>
        <time>2018-07-31T18:52:01Z</time>
      </trkpt>
      <trkpt lat="44.7787" lon="1.70131">
        <ele>308.04</ele>
        <time>2018-07-31T18:51:41Z</time>
      </trkpt>
      <trkpt lat="44.77895" lon="1.70174">
        <ele>309.443</ele>
        <time>2018-07-31T18:51:21Z</time>
      </trkpt>
      <trkpt lat="44.77903" lon="1.70187">
        <ele>309.176</ele>
        <time>2018-07-31T18:51:01Z</time>
      </trkpt>
      <trkpt lat="44.77921" lon="1.70217">
        <ele>308.735</ele>
        <time>2018-07-31T18:50:41Z</time>
      </trkpt>
      <trkpt lat="44.77921" lon="1.70218">
        <ele>308.786</ele>
        <time>2018-07-31T18:50:21Z</time>
      </trkpt>
      <trkpt lat="44.77928" lon="1.70234">
        <ele>308.014</ele>
        <time>2018-07-31T18:50:01Z</time>
      </trkpt>
      <trkpt lat="44.77944" lon="1.70272">
        <ele>306.908</ele>
        <time>2018-07-31T18:49:41Z</time>
      </trkpt>
      <trkpt lat="44.77955" lon="1.70331">
        <ele>305.325</ele>
        <time>2018-07-31T18:49:21Z</time>
      </trkpt>
      <trkpt lat="44.77956" lon="1.7035">
        <ele>305.61</ele>
        <time>2018-07-31T18:49:01Z</time>
      </trkpt>
      <trkpt lat="44.77958" lon="1.70385">
        <ele>305.544</ele>
        <time>2018-07-31T18:48:41Z</time>
      </trkpt>
      <trkpt lat="44.77963" lon="1.70418">
        <ele>304.353</ele>
        <time>2018-07-31T18:48:21Z</time>
      </trkpt>
      <trkpt lat="44.77963" lon="1.70434">
        <ele>303.915</ele>
        <time>2018-07-31T18:48:01Z</time>
      </trkpt>
      <trkpt lat="44.77964" lon="1.70463">
        <ele>303.454</ele>
        <time>2018-07-31T18:47:41Z</time>
      </trkpt>
      <trkpt lat="44.7797" lon="1.70495">
        <ele>302.397</ele>
        <time>2018-07-31T18:47:21Z</time>
      </trkpt>
      <trkpt lat="44.77973" lon="1.70509">
        <ele>302.22</ele>
        <time>2018-07-31T18:47:01Z</time>
      </trkpt>
      <trkpt lat="44.77989" lon="1.70578">
        <ele>302.379</ele>
        <time>2018-07-31T18:46:41Z</time>
      </trkpt>
      <trkpt lat="44.77992" lon="1.70623">
        <ele>301.305</ele>
        <time>2018-07-31T18:46:21Z</time>
      </trkpt>
      <trkpt lat="44.77992" lon="1.70662">
        <ele>300.125</ele>
        <time>2018-07-31T18:46:01Z</time>
      </trkpt>
      <trkpt lat="44.77993" lon="1.70691">
        <ele>299.808</ele>
        <time>2018-07-31T18:45:41Z</time>
      </trkpt>
      <trkpt lat="44.77994" lon="1.70757">
        <ele>299.669</ele>
        <time>2018-07-31T18:45:21Z</time>
      </trkpt>
      <trkpt lat="44.77999" lon="1.70806">
        <ele>298.134</ele>
        <time>2018-07-31T18:45:01Z</time>
      </trkpt>
      <trkpt lat="44.78006" lon="1.70846">
        <ele>298.348</ele>
        <time>2018-07-31T18:44:41Z</time>
      </trkpt>
      <trkpt lat="44.78012" lon="1.70879">
        <ele>299.757</ele>
        <time>2018-07-31T18:44:21Z</time>
      </trkpt>
      <trkpt lat="44.78014" lon="1.7092">
        <ele>301.739</ele>
        <time>2018-07-31T18:44:01Z</time>
      </trkpt>
      <trkpt lat="44.78027" lon="1.70924">
        <ele>300.778</ele>
        <time>2018-07-31T18:43:41Z</time>
      </trkpt>
      <trkpt lat="44.78035" lon="1.7092">
        <ele>299.541</ele>
        <time>2018-07-31T18:43:21Z</time>
      </trkpt>
      <trkpt lat="44.78035" lon="1.70912">
        <ele>299.194</ele>
        <time>2018-07-31T18:43:01Z</time>
      </trkpt>
      <trkpt lat="44.78029" lon="1.70898">
        <ele>299.299</ele>
        <time>2018-07-31T18:42:41Z</time>
      </trkpt>
      <trkpt lat="44.7803" lon="1.70886">
        <ele>298.507</ele>
        <time>2018-07-31T18:42:21Z</time>
      </trkpt>
      <trkpt lat="44.78034" lon="1.70873">
        <ele>297.027</ele>
        <time>2018-07-31T18:42:01Z</time>
      </trkpt>
      <trkpt lat="44.78042" lon="1.70868">
        <ele>295.408</ele>
        <time>2018-07-31T18:41:41Z</time>
      </trkpt>
      <trkpt lat="44.78052" lon="1.70876">
        <ele>294.641</ele>
        <time>2018-07-31T18:41:21Z</time>
      </trkpt>
      <trkpt lat="44.78065" lon="1.70884">
        <ele>293.626</ele>
        <time>2018-07-31T18:41:01Z</time>
      </trkpt>
      <trkpt lat="44.78077" lon="1.709">
        <ele>293.23</ele>
        <time>2018-07-31T18:40:41Z</time>
      </trkpt>
      <trkpt lat="44.78087" lon="1.70905">
        <ele>292.289</ele>
        <time>2018-07-31T18:40:21Z</time>
      </trkpt>
      <trkpt lat="44.78095" lon="1.70905">
        <ele>291.041</ele>
        <time>2018-07-31T18:40:01Z</time>
      </trkpt>
      <trkpt lat="44.78106" lon="1.70905">
        <ele>289.63</ele>
        <time>2018-07-31T18:39:41Z</time>
      </trkpt>
      <trkpt lat="44.78116" lon="1.70905">
        <ele>288.163</ele>
        <time>2018-07-31T18:39:21Z</time>
      </trkpt>
      <trkpt lat="44.78122" lon="1.70904">
        <ele>286.976</ele>
        <time>2018-07-31T18:39:01Z</time>
      </trkpt>
      <trkpt lat="44.78128" lon="1.70904">
        <ele>285.628</ele>
        <time>2018-07-31T18:38:41Z</time>
      </trkpt>
      <trkpt lat="44.78137" lon="1.70905">
        <ele>283.989</ele>
        <time>2018-07-31T18:38:21Z</time>
      </trkpt>
      <trkpt lat="44.78143" lon="1.70902">
        <ele>283.317</ele>
        <time>2018-07-31T18:38:01Z</time>
      </trkpt>
      <trkpt lat="44.78145" lon="1.70909">
        <ele>283.308</ele>
        <time>2018-07-31T18:37:41Z</time>
      </trkpt>
      <trkpt lat="44.78151" lon="1.7092">
        <ele>283.014</ele>
        <time>2018-07-31T18:37:21Z</time>
      </trkpt>
      <trkpt lat="44.78149" lon="1.70926">
        <ele>282.779</ele>
        <time>2018-07-31T18:37:01Z</time>
      </trkpt>
      <trkpt lat="44.78146" lon="1.70939">
        <ele>282.183</ele>
        <time>2018-07-31T18:36:41Z</time>
      </trkpt>
      <trkpt lat="44.78145" lon="1.70946">
        <ele>281.752</ele>
        <time>2018-07-31T18:36:21Z</time>
      </trkpt>
      <trkpt lat="44.78144" lon="1.70963">
        <ele>280.574</ele>
        <time>2018-07-31T18:36:01Z</time>
      </trkpt>
      <trkpt lat="44.78142" lon="1.70974">
        <ele>279.823</ele>
        <time>2018-07-31T18:35:41Z</time>
      </trkpt>
      <trkpt lat="44.78144" lon="1.70987">
        <ele>278.436</ele>
        <time>2018-07-31T18:35:21Z</time>
      </trkpt>
      <trkpt lat="44.78148" lon="1.71001">
        <ele>277.369</ele>
        <time>2018-07-31T18:35:01Z</time>
      </trkpt>
      <trkpt lat="44.78148" lon="1.71012">
        <ele>277.371</ele>
        <time>2018-07-31T18:34:41Z</time>
      </trkpt>
      <trkpt lat="44.78149" lon="1.71027">
        <ele>277.441</ele>
        <time>2018-07-31T18:34:21Z</time>
      </trkpt>
      <trkpt lat="44.78152" lon="1.71047">
        <ele>279.215</ele>
        <time>2018-07-31T18:34:01Z</time>
      </trkpt>
      <trkpt lat="44.78152" lon="1.71056">
        <ele>279.908</ele>
        <time>2018-07-31T18:33:41Z</time>
      </trkpt>
      <trkpt lat="44.78149" lon="1.71067">
        <ele>281.259</ele>
        <time>2018-07-31T18:33:21Z</time>
      </trkpt>
      <trkpt lat="44.78147" lon="1.71086">
        <ele>283.664</ele>
        <time>2018-07-31T18:33:01Z</time>
      </trkpt>
      <trkpt lat="44.78147" lon="1.71103">
        <ele>285.418</ele>
        <time>2018-07-31T18:32:41Z</time>
      </trkpt>
      <trkpt lat="44.7815" lon="1.71113">
        <ele>286.397</ele>
        <time>2018-07-31T18:32:21Z</time>
      </trkpt>
      <trkpt lat="44.78152" lon="1.71128">
        <ele>285.639</ele>
        <time>2018-07-31T18:32:01Z</time>
      </trkpt>
      <trkpt lat="44.78156" lon="1.71136">
        <ele>285.328</ele>
        <time>2018-07-31T18:31:41Z</time>
      </trkpt>
      <trkpt lat="44.78158" lon="1.71153">
        <ele>284.241</ele>
        <time>2018-07-31T18:31:21Z</time>
      </trkpt>
      <trkpt lat="44.78161" lon="1.71168">
        <ele>283.494</ele>
        <time>2018-07-31T18:31:01Z</time>
      </trkpt>
      <trkpt lat="44.78165" lon="1.71188">
        <ele>283.047</ele>
        <time>2018-07-31T18:30:41Z</time>
      </trkpt>
      <trkpt lat="44.78167" lon="1.71203">
        <ele>282.429</ele>
        <time>2018-07-31T18:30:21Z</time>
      </trkpt>
      <trkpt lat="44.78169" lon="1.71215">
        <ele>281.721</ele>
        <time>2018-07-31T18:30:01Z</time>
      </trkpt>
      <trkpt lat="44.7817" lon="1.71227">
        <ele>281.208</ele>
        <time>2018-07-31T18:29:41Z</time>
      </trkpt>
      <trkpt lat="44.78163" lon="1.71247">
        <ele>280.996</ele>
        <time>2018-07-31T18:29:21Z</time>
      </trkpt>
      <trkpt lat="44.78155" lon="1.71261">
        <ele>280.721</ele>
        <time>2018-07-31T18:29:01Z</time>
      </trkpt>
      <trkpt lat="44.78147" lon="1.71272">
        <ele>280.885</ele>
        <time>2018-07-31T18:28:41Z</time>
      </trkpt>
      <trkpt lat="44.7814" lon="1.71283">
        <ele>281.374</ele>
        <time>2018-07-31T18:28:21Z</time>
      </trkpt>
      <trkpt lat="44.78132" lon="1.71294">
        <ele>281.786</ele>
        <time>2018-07-31T18:28:01Z</time>
      </trkpt>
      <trkpt lat="44.78114" lon="1.71313">
        <ele>281.545</ele>
        <time>2018-07-31T18:27:41Z</time>
      </trkpt>
      <trkpt lat="44.78094" lon="1.71335">
        <ele>281.558</ele>
        <time>2018-07-31T18:27:21Z</time>
      </trkpt>
      <trkpt lat="44.78078" lon="1.71352">
        <ele>281.721</ele>
        <time>2018-07-31T18:27:01Z</time>
      </trkpt>
      <trkpt lat="44.78063" lon="1.71367">
        <ele>283.291</ele>
        <time>2018-07-31T18:26:41Z</time>
      </trkpt>
      <trkpt lat="44.78055" lon="1.71376">
        <ele>284.681</ele>
        <time>2018-07-31T18:26:21Z</time>
      </trkpt>
      <trkpt lat="44.78046" lon="1.71389">
        <ele>285.619</ele>
        <time>2018-07-31T18:26:01Z</time>
      </trkpt>
      <trkpt lat="44.78042" lon="1.71409">
        <ele>287.608</ele>
        <time>2018-07-31T18:25:41Z</time>
      </trkpt>
      <trkpt lat="44.78045" lon="1.71417">
        <ele>288.431</ele>
        <time>2018-07-31T18:25:21Z</time>
      </trkpt>
      <trkpt lat="44.78045" lon="1.71426">
        <ele>289.326</ele>
        <time>2018-07-31T18:25:01Z</time>
      </trkpt>
      <trkpt lat="44.78047" lon="1.71433">
        <ele>289.89</ele>
        <time>2018-07-31T18:24:41Z</time>
      </trkpt>
      <trkpt lat="44.78049" lon="1.71456">
        <ele>292.579</ele>
        <time>2018-07-31T18:24:21Z</time>
      </trkpt>
      <trkpt lat="44.78051" lon="1.71469">
        <ele>294.711</ele>
        <time>2018-07-31T18:24:01Z</time>
      </trkpt>
      <trkpt lat="44.78055" lon="1.71486">
        <ele>296.57</ele>
        <time>2018-07-31T18:23:41Z</time>
      </trkpt>
      <trkpt lat="44.78058" lon="1.71496">
        <ele>297.053</ele>
        <time>2018-07-31T18:23:21Z</time>
      </trkpt>
      <trkpt lat="44.78063" lon="1.71509">
        <ele>297.356</ele>
        <time>2018-07-31T18:23:01Z</time>
      </trkpt>
      <trkpt lat="44.78063" lon="1.71522">
        <ele>298.344</ele>
        <time>2018-07-31T18:22:41Z</time>
      </trkpt>
      <trkpt lat="44.7806" lon="1.71535">
        <ele>299.905</ele>
        <time>2018-07-31T18:22:21Z</time>
      </trkpt>
      <trkpt lat="44.78055" lon="1.71544">
        <ele>301.215</ele>
        <time>2018-07-31T18:22:01Z</time>
      </trkpt>
      <trkpt lat="44.78041" lon="1.71558">
        <ele>302.108</ele>
        <time>2018-07-31T18:21:41Z</time>
      </trkpt>
      <trkpt lat="44.78027" lon="1.71571">
        <ele>302.376</ele>
        <time>2018-07-31T18:21:21Z</time>
      </trkpt>
      <trkpt lat="44.78012" lon="1.71584">
        <ele>300.181</ele>
        <time>2018-07-31T18:21:01Z</time>
      </trkpt>
      <trkpt lat="44.78011" lon="1.7159">
        <ele>300.375</ele>
        <time>2018-07-31T18:20:41Z</time>
      </trkpt>
      <trkpt lat="44.78003" lon="1.7161">
        <ele>300.424</ele>
        <time>2018-07-31T18:20:21Z</time>
      </trkpt>
      <trkpt lat="44.77995" lon="1.71631">
        <ele>299.876</ele>
        <time>2018-07-31T18:20:01Z</time>
      </trkpt>
      <trkpt lat="44.77981" lon="1.71663">
        <ele>300.165</ele>
        <time>2018-07-31T18:19:41Z</time>
      </trkpt>
      <trkpt lat="44.77966" lon="1.71691">
        <ele>299.458</ele>
        <time>2018-07-31T18:19:21Z</time>
      </trkpt>
      <trkpt lat="44.77948" lon="1.71732">
        <ele>297.871</ele>
        <time>2018-07-31T18:19:01Z</time>
      </trkpt>
      <trkpt lat="44.77931" lon="1.71766">
        <ele>296.184</ele>
        <time>2018-07-31T18:18:41Z</time>
      </trkpt>
      <trkpt lat="44.77925" lon="1.71778">
        <ele>295.507</ele>
        <time>2018-07-31T18:18:21Z</time>
      </trkpt>
      <trkpt lat="44.77922" lon="1.71792">
        <ele>294.917</ele>
        <time>2018-07-31T18:18:01Z</time>
      </trkpt>
      <trkpt lat="44.77918" lon="1.71804">
        <ele>294.208</ele>
        <time>2018-07-31T18:17:41Z</time>
      </trkpt>
      <trkpt lat="44.77917" lon="1.71809">
        <ele>293.98</ele>
        <time>2018-07-31T18:17:21Z</time>
      </trkpt>
      <trkpt lat="44.77913" lon="1.71821">
        <ele>292.955</ele>
        <time>2018-07-31T18:17:01Z</time>
      </trkpt>
      <trkpt lat="44.779" lon="1.71856">
        <ele>291.759</ele>
        <time>2018-07-31T18:16:41Z</time>
      </trkpt>
      <trkpt lat="44.77889" lon="1.71885">
        <ele>291.888</ele>
        <time>2018-07-31T18:16:21Z</time>
      </trkpt>
      <trkpt lat="44.77888" lon="1.7189">
        <ele>291.97</ele>
        <time>2018-07-31T18:16:01Z</time>
      </trkpt>
      <trkpt lat="44.77885" lon="1.71902">
        <ele>292.619</ele>
        <time>2018-07-31T18:15:41Z</time>
      </trkpt>
      <trkpt lat="44.7788" lon="1.71917">
        <ele>293.012</ele>
        <time>2018-07-31T18:15:21Z</time>
      </trkpt>
      <trkpt lat="44.77877" lon="1.71924">
        <ele>292.785</ele>
        <time>2018-07-31T18:15:01Z</time>
      </trkpt>
      <trkpt lat="44.77876" lon="1.71931">
        <ele>292.411</ele>
        <time>2018-07-31T18:14:41Z</time>
      </trkpt>
      <trkpt lat="44.77875" lon="1.71936">
        <ele>292.321</ele>
        <time>2018-07-31T18:14:21Z</time>
      </trkpt>
      <trkpt lat="44.77875" lon="1.71941">
        <ele>292.303</ele>
        <time>2018-07-31T18:14:01Z</time>
      </trkpt>
      <trkpt lat="44.77875" lon="1.71944">
        <ele>292.408</ele>
        <time>2018-07-31T18:13:41Z</time>
      </trkpt>
      <trkpt lat="44.77875" lon="1.71948">
        <ele>292.323</ele>
        <time>2018-07-31T18:13:21Z</time>
      </trkpt>
      <trkpt lat="44.77875" lon="1.71954">
        <ele>292.428</ele>
        <time>2018-07-31T18:13:01Z</time>
      </trkpt>
      <trkpt lat="44.77876" lon="1.71959">
        <ele>292.572</ele>
        <time>2018-07-31T18:12:41Z</time>
      </trkpt>
      <trkpt lat="44.77878" lon="1.71969">
        <ele>292.711</ele>
        <time>2018-07-31T18:12:21Z</time>
      </trkpt>
      <trkpt lat="44.77881" lon="1.7198">
        <ele>292.663</ele>
        <time>2018-07-31T18:12:01Z</time>
      </trkpt>
      <trkpt lat="44.7789" lon="1.72006">
        <ele>291.992</ele>
        <time>2018-07-31T18:11:41Z</time>
      </trkpt>
      <trkpt lat="44.77903" lon="1.72045">
        <ele>294.575</ele>
        <time>2018-07-31T18:11:21Z</time>
      </trkpt>
      <trkpt lat="44.77904" lon="1.72048">
        <ele>294.628</ele>
        <time>2018-07-31T18:11:01Z</time>
      </trkpt>
      <trkpt lat="44.77906" lon="1.72054">
        <ele>295.218</ele>
        <time>2018-07-31T18:10:41Z</time>
      </trkpt>
      <trkpt lat="44.77906" lon="1.7206">
        <ele>295.798</ele>
        <time>2018-07-31T18:10:21Z</time>
      </trkpt>
      <trkpt lat="44.77906" lon="1.72068">
        <ele>296.417</ele>
        <time>2018-07-31T18:10:01Z</time>
      </trkpt>
      <trkpt lat="44.77905" lon="1.72071">
        <ele>296.508</ele>
        <time>2018-07-31T18:09:41Z</time>
      </trkpt>
      <trkpt lat="44.77903" lon="1.72079">
        <ele>296.743</ele>
        <time>2018-07-31T18:09:21Z</time>
      </trkpt>
      <trkpt lat="44.77893" lon="1.72112">
        <ele>299.078</ele>
        <time>2018-07-31T18:09:01Z</time>
      </trkpt>
      <trkpt lat="44.77883" lon="1.72139">
        <ele>301.262</ele>
        <time>2018-07-31T18:08:41Z</time>
      </trkpt>
      <trkpt lat="44.77873" lon="1.72156">
        <ele>300.181</ele>
        <time>2018-07-31T18:08:21Z</time>
      </trkpt>
      <trkpt lat="44.7786" lon="1.72175">
        <ele>298.473</ele>
        <time>2018-07-31T18:08:01Z</time>
      </trkpt>
      <trkpt lat="44.77854" lon="1.72181">
        <ele>297.742</ele>
        <time>2018-07-31T18:07:41Z</time>
      </trkpt>
      <trkpt lat="44.77833" lon="1.72203">
        <ele>296.265</ele>
        <time>2018-07-31T18:07:21Z</time>
      </trkpt>
      <trkpt lat="44.77824" lon="1.72213">
        <ele>296.9</ele>
      </trkpt>
      <trkpt lat="44.77816" lon="1.72217">
        <ele>296.6</ele>
      </trkpt>
      <trkpt lat="44.77799" lon="1.72218">
        <ele>294.8</ele>
      </trkpt>
      <trkpt lat="44.77786" lon="1.72223">
        <ele>293.7</ele>
      </trkpt>
      <trkpt lat="44.77767" lon="1.72254">
        <ele>293.5</ele>
      </trkpt>
      <trkpt lat="44.7775" lon="1.72291">
        <ele>293.9</ele>
      </trkpt>
      <trkpt lat="44.7773" lon="1.72278">
        <ele>292.1</ele>
      </trkpt>
      <trkpt lat="44.77719" lon="1.72274">
        <ele>291.4</ele>
      </trkpt>
      <trkpt lat="44.77691" lon="1.72271">
        <ele>290</ele>
      </trkpt>
      <trkpt lat="44.77673" lon="1.72267">
        <ele>289.3</ele>
      </trkpt>
      <trkpt lat="44.77659" lon="1.72267">
        <ele>289.8</ele>
      </trkpt>
      <trkpt lat="44.77654" lon="1.72269">
        <ele>290.4</ele>
      </trkpt>
      <trkpt lat="44.77652" lon="1.72341">
        <ele>289.5</ele>
      </trkpt>
      <trkpt lat="44.77649" lon="1.7237">
        <ele>288.9</ele>
      </trkpt>
      <trkpt lat="44.77665" lon="1.72481">
        <ele>287.1</ele>
      </trkpt>
      <trkpt lat="44.77665" lon="1.72493">
        <ele>287</ele>
      </trkpt>
      <trkpt lat="44.77655" lon="1.72532">
        <ele>289.2</ele>
      </trkpt>
      <trkpt lat="44.7765" lon="1.72538">
        <ele>289.6</ele>
      </trkpt>
      <trkpt lat="44.77598" lon="1.7258">
        <ele>289.7</ele>
      </trkpt>
      <trkpt lat="44.77566" lon="1.72612">
        <ele>290.2</ele>
      </trkpt>
      <trkpt lat="44.77551" lon="1.72624">
        <ele>290.7</ele>
      </trkpt>
      <trkpt lat="44.77534" lon="1.72635">
        <ele>291</ele>
      </trkpt>
      <trkpt lat="44.77485" lon="1.72679">
        <ele>290.9</ele>
      </trkpt>
      <trkpt lat="44.77448" lon="1.72732">
        <ele>290.3</ele>
      </trkpt>
      <trkpt lat="44.77443" lon="1.72744">
        <ele>289.8</ele>
      </trkpt>
      <trkpt lat="44.77431" lon="1.72782">
        <ele>290.2</ele>
      </trkpt>
      <trkpt lat="44.77426" lon="1.72778">
        <ele>290.2</ele>
      </trkpt>
      <trkpt lat="44.77421" lon="1.72778">
        <ele>290.3</ele>
      </trkpt>
      <trkpt lat="44.77414" lon="1.72782">
        <ele>290.6</ele>
      </trkpt>
      <trkpt lat="44.77404" lon="1.72788">
        <ele>291.3</ele>
      </trkpt>
      <trkpt lat="44.77378" lon="1.72813">
        <ele>292.1</ele>
      </trkpt>
      <trkpt lat="44.77342" lon="1.72831">
        <ele>292.1</ele>
      </trkpt>
      <trkpt lat="44.77325" lon="1.72833">
        <ele>292.4</ele>
      </trkpt>
      <trkpt lat="44.77305" lon="1.72823">
        <ele>294.1</ele>
      </trkpt>
      <trkpt lat="44.77296" lon="1.72823">
        <ele>294.6</ele>
      </trkpt>
      <trkpt lat="44.77254" lon="1.72813">
        <ele>297.3</ele>
      </trkpt>
      <trkpt lat="44.77244" lon="1.72812">
        <ele>297.6</ele>
      </trkpt>
      <trkpt lat="44.77204" lon="1.72817">
        <ele>297.7</ele>
      </trkpt>
      <trkpt lat="44.77197" lon="1.72816">
        <ele>297.9</ele>
      </trkpt>
      <trkpt lat="44.77187" lon="1.72819">
        <ele>297.9</ele>
      </trkpt>
      <trkpt lat="44.77171" lon="1.72832">
        <ele>297.9</ele>
      </trkpt>
      <trkpt lat="44.7709" lon="1.72843">
        <ele>300.8</ele>
      </trkpt>
      <trkpt lat="44.77083" lon="1.72843">
        <ele>301.1</ele>
      </trkpt>
      <trkpt lat="44.77077" lon="1.72841">
        <ele>301.5</ele>
      </trkpt>
      <trkpt lat="44.77054" lon="1.72828">
        <ele>303.2</ele>
      </trkpt>
      <trkpt lat="44.77029" lon="1.72817">
        <ele>304.4</ele>
      </trkpt>
      <trkpt lat="44.77006" lon="1.72803">
        <ele>305.8</ele>
      </trkpt>
      <trkpt lat="44.76997" lon="1.72795">
        <ele>306.4</ele>
      </trkpt>
      <trkpt lat="44.76985" lon="1.72794">
        <ele>306.9</ele>
      </trkpt>
      <trkpt lat="44.76975" lon="1.72797">
        <ele>307</ele>
      </trkpt>
    </trkseg>
  </trk>
</gpx>